<?xml version="1.0" encoding="UTF-8" standalone="no" ?>
<gpx xmlns="http://www.topografix.com/GPX/1/1" xmlns:xsi="http://www.w3.org/2001/XMLSchema-instance" xsi:schemaLocation="http://www.topografix.com/GPX/1/1 http://www.topografix.com/GPX/1/1/gpx.xsd" version="1.1" creator="VisuGPX - https://www.visugpx.com">
  <metadata>
    <name>Vélo dans l'après-midi</name>
  </metadata>
  <trk>
    <name><![CDATA[Vélo dans l'après-midi]]></name>
    <trkseg>
      <trkpt lat="49.37347" lon="1.01666">
        <ele>10.6</ele>
        <time>2021-10-22T15:51:11Z</time>
      </trkpt>
      <trkpt lat="49.3735" lon="1.01666">
        <ele>10.6</ele>
        <time>2021-10-22T15:51:14Z</time>
      </trkpt>
      <trkpt lat="49.37352" lon="1.01666">
        <ele>10.5</ele>
        <time>2021-10-22T15:51:15Z</time>
      </trkpt>
      <trkpt lat="49.37363" lon="1.01644">
        <ele>10.3</ele>
        <time>2021-10-22T15:51:17Z</time>
      </trkpt>
      <trkpt lat="49.37358" lon="1.01638">
        <ele>10.3</ele>
        <time>2021-10-22T15:51:18Z</time>
      </trkpt>
      <trkpt lat="49.37353" lon="1.01629">
        <ele>10.1</ele>
        <time>2021-10-22T15:51:20Z</time>
      </trkpt>
      <trkpt lat="49.3735" lon="1.01626">
        <ele>10</ele>
        <time>2021-10-22T15:51:22Z</time>
      </trkpt>
      <trkpt lat="49.37346" lon="1.01627">
        <ele>9.8</ele>
        <time>2021-10-22T15:51:23Z</time>
      </trkpt>
      <trkpt lat="49.37341" lon="1.01627">
        <ele>9.6</ele>
        <time>2021-10-22T15:51:24Z</time>
      </trkpt>
      <trkpt lat="49.37337" lon="1.01627">
        <ele>9.5</ele>
        <time>2021-10-22T15:51:25Z</time>
      </trkpt>
      <trkpt lat="49.37332" lon="1.01625">
        <ele>9.5</ele>
        <time>2021-10-22T15:51:27Z</time>
      </trkpt>
      <trkpt lat="49.37328" lon="1.01621">
        <ele>9.6</ele>
        <time>2021-10-22T15:51:29Z</time>
      </trkpt>
      <trkpt lat="49.37325" lon="1.01625">
        <ele>9.7</ele>
        <time>2021-10-22T15:51:31Z</time>
      </trkpt>
      <trkpt lat="49.37324" lon="1.01626">
        <ele>9.8</ele>
        <time>2021-10-22T15:51:32Z</time>
      </trkpt>
      <trkpt lat="49.3732" lon="1.01628">
        <ele>10</ele>
        <time>2021-10-22T15:51:34Z</time>
      </trkpt>
      <trkpt lat="49.37319" lon="1.01629">
        <ele>10.1</ele>
        <time>2021-10-22T15:51:36Z</time>
      </trkpt>
      <trkpt lat="49.37319" lon="1.01631">
        <ele>10.1</ele>
        <time>2021-10-22T15:51:38Z</time>
      </trkpt>
      <trkpt lat="49.37319" lon="1.01633">
        <ele>10.2</ele>
        <time>2021-10-22T15:51:40Z</time>
      </trkpt>
      <trkpt lat="49.37319" lon="1.01633">
        <ele>10.2</ele>
        <time>2021-10-22T15:51:42Z</time>
      </trkpt>
      <trkpt lat="49.37319" lon="1.01633">
        <ele>10.2</ele>
        <time>2021-10-22T15:51:45Z</time>
      </trkpt>
      <trkpt lat="49.37314" lon="1.01629">
        <ele>10.5</ele>
        <time>2021-10-22T15:51:51Z</time>
      </trkpt>
      <trkpt lat="49.3731" lon="1.01626">
        <ele>10.6</ele>
        <time>2021-10-22T15:51:53Z</time>
      </trkpt>
      <trkpt lat="49.37306" lon="1.01624">
        <ele>10.7</ele>
        <time>2021-10-22T15:51:54Z</time>
      </trkpt>
      <trkpt lat="49.37296" lon="1.01619">
        <ele>10.9</ele>
        <time>2021-10-22T15:51:56Z</time>
      </trkpt>
      <trkpt lat="49.37288" lon="1.01615">
        <ele>11.1</ele>
        <time>2021-10-22T15:51:58Z</time>
      </trkpt>
      <trkpt lat="49.37275" lon="1.01611">
        <ele>11.4</ele>
        <time>2021-10-22T15:52:00Z</time>
      </trkpt>
      <trkpt lat="49.3727" lon="1.0161">
        <ele>11.5</ele>
        <time>2021-10-22T15:52:01Z</time>
      </trkpt>
      <trkpt lat="49.37266" lon="1.01611">
        <ele>11.7</ele>
        <time>2021-10-22T15:52:03Z</time>
      </trkpt>
      <trkpt lat="49.37249" lon="1.01608">
        <ele>12.2</ele>
        <time>2021-10-22T15:52:04Z</time>
      </trkpt>
      <trkpt lat="49.37225" lon="1.01598">
        <ele>12.2</ele>
        <time>2021-10-22T15:52:06Z</time>
      </trkpt>
      <trkpt lat="49.37207" lon="1.01593">
        <ele>12.7</ele>
        <time>2021-10-22T15:52:08Z</time>
      </trkpt>
      <trkpt lat="49.37199" lon="1.0159">
        <ele>12.8</ele>
        <time>2021-10-22T15:52:09Z</time>
      </trkpt>
      <trkpt lat="49.37186" lon="1.01583">
        <ele>12.6</ele>
        <time>2021-10-22T15:52:11Z</time>
      </trkpt>
      <trkpt lat="49.37179" lon="1.01581">
        <ele>12.5</ele>
        <time>2021-10-22T15:52:12Z</time>
      </trkpt>
      <trkpt lat="49.37173" lon="1.01579">
        <ele>12.5</ele>
        <time>2021-10-22T15:52:13Z</time>
      </trkpt>
      <trkpt lat="49.3716" lon="1.01573">
        <ele>12.6</ele>
        <time>2021-10-22T15:52:15Z</time>
      </trkpt>
      <trkpt lat="49.37148" lon="1.01568">
        <ele>12.3</ele>
        <time>2021-10-22T15:52:17Z</time>
      </trkpt>
      <trkpt lat="49.37137" lon="1.01562">
        <ele>12.4</ele>
        <time>2021-10-22T15:52:19Z</time>
      </trkpt>
      <trkpt lat="49.37125" lon="1.01557">
        <ele>12.4</ele>
        <time>2021-10-22T15:52:21Z</time>
      </trkpt>
      <trkpt lat="49.37113" lon="1.01551">
        <ele>11.6</ele>
        <time>2021-10-22T15:52:23Z</time>
      </trkpt>
      <trkpt lat="49.37101" lon="1.01544">
        <ele>11.5</ele>
        <time>2021-10-22T15:52:25Z</time>
      </trkpt>
      <trkpt lat="49.37098" lon="1.01542">
        <ele>11.4</ele>
        <time>2021-10-22T15:52:26Z</time>
      </trkpt>
      <trkpt lat="49.37086" lon="1.01537">
        <ele>11.4</ele>
        <time>2021-10-22T15:52:28Z</time>
      </trkpt>
      <trkpt lat="49.3708" lon="1.01535">
        <ele>11.2</ele>
        <time>2021-10-22T15:52:29Z</time>
      </trkpt>
      <trkpt lat="49.37075" lon="1.01533">
        <ele>10.9</ele>
        <time>2021-10-22T15:52:30Z</time>
      </trkpt>
      <trkpt lat="49.37064" lon="1.01528">
        <ele>10.5</ele>
        <time>2021-10-22T15:52:32Z</time>
      </trkpt>
      <trkpt lat="49.37058" lon="1.0153">
        <ele>10.3</ele>
        <time>2021-10-22T15:52:33Z</time>
      </trkpt>
      <trkpt lat="49.37053" lon="1.01535">
        <ele>10</ele>
        <time>2021-10-22T15:52:34Z</time>
      </trkpt>
      <trkpt lat="49.37048" lon="1.0154">
        <ele>10.4</ele>
        <time>2021-10-22T15:52:35Z</time>
      </trkpt>
      <trkpt lat="49.37042" lon="1.01554">
        <ele>12.3</ele>
        <time>2021-10-22T15:52:37Z</time>
      </trkpt>
      <trkpt lat="49.37041" lon="1.01561">
        <ele>13.1</ele>
        <time>2021-10-22T15:52:38Z</time>
      </trkpt>
      <trkpt lat="49.37038" lon="1.01577">
        <ele>14.8</ele>
        <time>2021-10-22T15:52:41Z</time>
      </trkpt>
      <trkpt lat="49.37041" lon="1.01591">
        <ele>15.9</ele>
        <time>2021-10-22T15:52:43Z</time>
      </trkpt>
      <trkpt lat="49.37052" lon="1.01603">
        <ele>15.9</ele>
        <time>2021-10-22T15:52:45Z</time>
      </trkpt>
      <trkpt lat="49.37064" lon="1.0161">
        <ele>15.9</ele>
        <time>2021-10-22T15:52:47Z</time>
      </trkpt>
      <trkpt lat="49.3707" lon="1.01612">
        <ele>16</ele>
        <time>2021-10-22T15:52:48Z</time>
      </trkpt>
      <trkpt lat="49.37081" lon="1.01616">
        <ele>16</ele>
        <time>2021-10-22T15:52:50Z</time>
      </trkpt>
      <trkpt lat="49.37092" lon="1.01622">
        <ele>16</ele>
        <time>2021-10-22T15:52:52Z</time>
      </trkpt>
      <trkpt lat="49.37098" lon="1.01625">
        <ele>16.1</ele>
        <time>2021-10-22T15:52:53Z</time>
      </trkpt>
      <trkpt lat="49.37103" lon="1.01628">
        <ele>16.1</ele>
        <time>2021-10-22T15:52:54Z</time>
      </trkpt>
      <trkpt lat="49.37115" lon="1.01633">
        <ele>16.1</ele>
        <time>2021-10-22T15:52:56Z</time>
      </trkpt>
      <trkpt lat="49.37126" lon="1.01639">
        <ele>16.1</ele>
        <time>2021-10-22T15:52:58Z</time>
      </trkpt>
      <trkpt lat="49.37132" lon="1.01641">
        <ele>16.1</ele>
        <time>2021-10-22T15:52:59Z</time>
      </trkpt>
      <trkpt lat="49.37139" lon="1.01643">
        <ele>16</ele>
        <time>2021-10-22T15:53:01Z</time>
      </trkpt>
      <trkpt lat="49.37153" lon="1.01649">
        <ele>16</ele>
        <time>2021-10-22T15:53:02Z</time>
      </trkpt>
      <trkpt lat="49.37159" lon="1.01651">
        <ele>15.9</ele>
        <time>2021-10-22T15:53:03Z</time>
      </trkpt>
      <trkpt lat="49.37172" lon="1.01656">
        <ele>15.9</ele>
        <time>2021-10-22T15:53:05Z</time>
      </trkpt>
      <trkpt lat="49.37185" lon="1.01661">
        <ele>15.7</ele>
        <time>2021-10-22T15:53:07Z</time>
      </trkpt>
      <trkpt lat="49.37192" lon="1.01664">
        <ele>15.6</ele>
        <time>2021-10-22T15:53:09Z</time>
      </trkpt>
      <trkpt lat="49.37205" lon="1.01672">
        <ele>15.5</ele>
        <time>2021-10-22T15:53:10Z</time>
      </trkpt>
      <trkpt lat="49.37212" lon="1.01675">
        <ele>15.4</ele>
        <time>2021-10-22T15:53:11Z</time>
      </trkpt>
      <trkpt lat="49.37226" lon="1.01679">
        <ele>15.3</ele>
        <time>2021-10-22T15:53:13Z</time>
      </trkpt>
      <trkpt lat="49.37239" lon="1.01685">
        <ele>15.1</ele>
        <time>2021-10-22T15:53:15Z</time>
      </trkpt>
      <trkpt lat="49.37246" lon="1.01687">
        <ele>15</ele>
        <time>2021-10-22T15:53:16Z</time>
      </trkpt>
      <trkpt lat="49.37254" lon="1.01689">
        <ele>14.9</ele>
        <time>2021-10-22T15:53:17Z</time>
      </trkpt>
      <trkpt lat="49.3726" lon="1.01692">
        <ele>14.8</ele>
        <time>2021-10-22T15:53:18Z</time>
      </trkpt>
      <trkpt lat="49.37275" lon="1.01697">
        <ele>14.6</ele>
        <time>2021-10-22T15:53:20Z</time>
      </trkpt>
      <trkpt lat="49.37289" lon="1.01703">
        <ele>14.6</ele>
        <time>2021-10-22T15:53:22Z</time>
      </trkpt>
      <trkpt lat="49.3731" lon="1.01712">
        <ele>14.4</ele>
        <time>2021-10-22T15:53:25Z</time>
      </trkpt>
      <trkpt lat="49.37324" lon="1.01717">
        <ele>14.3</ele>
        <time>2021-10-22T15:53:27Z</time>
      </trkpt>
      <trkpt lat="49.37331" lon="1.01721">
        <ele>14.2</ele>
        <time>2021-10-22T15:53:28Z</time>
      </trkpt>
      <trkpt lat="49.37345" lon="1.01727">
        <ele>14.1</ele>
        <time>2021-10-22T15:53:30Z</time>
      </trkpt>
      <trkpt lat="49.37352" lon="1.0173">
        <ele>14.1</ele>
        <time>2021-10-22T15:53:31Z</time>
      </trkpt>
      <trkpt lat="49.37359" lon="1.01734">
        <ele>14</ele>
        <time>2021-10-22T15:53:32Z</time>
      </trkpt>
      <trkpt lat="49.37374" lon="1.01738">
        <ele>14</ele>
        <time>2021-10-22T15:53:34Z</time>
      </trkpt>
      <trkpt lat="49.37388" lon="1.01743">
        <ele>13.9</ele>
        <time>2021-10-22T15:53:36Z</time>
      </trkpt>
      <trkpt lat="49.37402" lon="1.0175">
        <ele>13.8</ele>
        <time>2021-10-22T15:53:38Z</time>
      </trkpt>
      <trkpt lat="49.37416" lon="1.01755">
        <ele>13.7</ele>
        <time>2021-10-22T15:53:40Z</time>
      </trkpt>
      <trkpt lat="49.3743" lon="1.0176">
        <ele>13.6</ele>
        <time>2021-10-22T15:53:42Z</time>
      </trkpt>
      <trkpt lat="49.37437" lon="1.01763">
        <ele>13.6</ele>
        <time>2021-10-22T15:53:43Z</time>
      </trkpt>
      <trkpt lat="49.37452" lon="1.01769">
        <ele>13.4</ele>
        <time>2021-10-22T15:53:45Z</time>
      </trkpt>
      <trkpt lat="49.3746" lon="1.01773">
        <ele>13.3</ele>
        <time>2021-10-22T15:53:46Z</time>
      </trkpt>
      <trkpt lat="49.37467" lon="1.01776">
        <ele>13.3</ele>
        <time>2021-10-22T15:53:47Z</time>
      </trkpt>
      <trkpt lat="49.37474" lon="1.01779">
        <ele>13.2</ele>
        <time>2021-10-22T15:53:48Z</time>
      </trkpt>
      <trkpt lat="49.37488" lon="1.01786">
        <ele>13.1</ele>
        <time>2021-10-22T15:53:50Z</time>
      </trkpt>
      <trkpt lat="49.37503" lon="1.01794">
        <ele>13</ele>
        <time>2021-10-22T15:53:53Z</time>
      </trkpt>
      <trkpt lat="49.3751" lon="1.01796">
        <ele>13</ele>
        <time>2021-10-22T15:53:54Z</time>
      </trkpt>
      <trkpt lat="49.37525" lon="1.01802">
        <ele>12.9</ele>
        <time>2021-10-22T15:53:55Z</time>
      </trkpt>
      <trkpt lat="49.37533" lon="1.01804">
        <ele>12.8</ele>
        <time>2021-10-22T15:53:57Z</time>
      </trkpt>
      <trkpt lat="49.37547" lon="1.01811">
        <ele>12.8</ele>
        <time>2021-10-22T15:53:58Z</time>
      </trkpt>
      <trkpt lat="49.37562" lon="1.01818">
        <ele>12.7</ele>
        <time>2021-10-22T15:54:00Z</time>
      </trkpt>
      <trkpt lat="49.37577" lon="1.01822">
        <ele>12.7</ele>
        <time>2021-10-22T15:54:02Z</time>
      </trkpt>
      <trkpt lat="49.37584" lon="1.01825">
        <ele>12.7</ele>
        <time>2021-10-22T15:54:04Z</time>
      </trkpt>
      <trkpt lat="49.376" lon="1.0183">
        <ele>12.7</ele>
        <time>2021-10-22T15:54:05Z</time>
      </trkpt>
      <trkpt lat="49.37607" lon="1.01832">
        <ele>12.8</ele>
        <time>2021-10-22T15:54:06Z</time>
      </trkpt>
      <trkpt lat="49.37623" lon="1.01838">
        <ele>12.8</ele>
        <time>2021-10-22T15:54:08Z</time>
      </trkpt>
      <trkpt lat="49.3763" lon="1.0184">
        <ele>12.9</ele>
        <time>2021-10-22T15:54:09Z</time>
      </trkpt>
      <trkpt lat="49.37644" lon="1.01846">
        <ele>13</ele>
        <time>2021-10-22T15:54:11Z</time>
      </trkpt>
      <trkpt lat="49.37651" lon="1.01848">
        <ele>13.1</ele>
        <time>2021-10-22T15:54:12Z</time>
      </trkpt>
      <trkpt lat="49.37665" lon="1.01855">
        <ele>13.2</ele>
        <time>2021-10-22T15:54:15Z</time>
      </trkpt>
      <trkpt lat="49.37679" lon="1.0186">
        <ele>13.4</ele>
        <time>2021-10-22T15:54:16Z</time>
      </trkpt>
      <trkpt lat="49.37687" lon="1.01862">
        <ele>13.5</ele>
        <time>2021-10-22T15:54:17Z</time>
      </trkpt>
      <trkpt lat="49.377" lon="1.01867">
        <ele>13.7</ele>
        <time>2021-10-22T15:54:19Z</time>
      </trkpt>
      <trkpt lat="49.37713" lon="1.01872">
        <ele>13.9</ele>
        <time>2021-10-22T15:54:21Z</time>
      </trkpt>
      <trkpt lat="49.3772" lon="1.01874">
        <ele>14</ele>
        <time>2021-10-22T15:54:22Z</time>
      </trkpt>
      <trkpt lat="49.37734" lon="1.0188">
        <ele>14.2</ele>
        <time>2021-10-22T15:54:24Z</time>
      </trkpt>
      <trkpt lat="49.3774" lon="1.01883">
        <ele>14.3</ele>
        <time>2021-10-22T15:54:25Z</time>
      </trkpt>
      <trkpt lat="49.37746" lon="1.01885">
        <ele>14.4</ele>
        <time>2021-10-22T15:54:26Z</time>
      </trkpt>
      <trkpt lat="49.3776" lon="1.0189">
        <ele>14.5</ele>
        <time>2021-10-22T15:54:28Z</time>
      </trkpt>
      <trkpt lat="49.37766" lon="1.01894">
        <ele>14.5</ele>
        <time>2021-10-22T15:54:29Z</time>
      </trkpt>
      <trkpt lat="49.37779" lon="1.01901">
        <ele>14.6</ele>
        <time>2021-10-22T15:54:31Z</time>
      </trkpt>
      <trkpt lat="49.37785" lon="1.01904">
        <ele>14.7</ele>
        <time>2021-10-22T15:54:32Z</time>
      </trkpt>
      <trkpt lat="49.37798" lon="1.01913">
        <ele>14.9</ele>
        <time>2021-10-22T15:54:34Z</time>
      </trkpt>
      <trkpt lat="49.37805" lon="1.01915">
        <ele>15</ele>
        <time>2021-10-22T15:54:35Z</time>
      </trkpt>
      <trkpt lat="49.37825" lon="1.0192">
        <ele>15</ele>
        <time>2021-10-22T15:54:38Z</time>
      </trkpt>
      <trkpt lat="49.37832" lon="1.01922">
        <ele>15</ele>
        <time>2021-10-22T15:54:39Z</time>
      </trkpt>
      <trkpt lat="49.37845" lon="1.01929">
        <ele>15</ele>
        <time>2021-10-22T15:54:41Z</time>
      </trkpt>
      <trkpt lat="49.37858" lon="1.01935">
        <ele>14.9</ele>
        <time>2021-10-22T15:54:43Z</time>
      </trkpt>
      <trkpt lat="49.37872" lon="1.01941">
        <ele>14.8</ele>
        <time>2021-10-22T15:54:45Z</time>
      </trkpt>
      <trkpt lat="49.37886" lon="1.01946">
        <ele>14.7</ele>
        <time>2021-10-22T15:54:48Z</time>
      </trkpt>
      <trkpt lat="49.37901" lon="1.01952">
        <ele>14.6</ele>
        <time>2021-10-22T15:54:49Z</time>
      </trkpt>
      <trkpt lat="49.37908" lon="1.01954">
        <ele>14.5</ele>
        <time>2021-10-22T15:54:50Z</time>
      </trkpt>
      <trkpt lat="49.37923" lon="1.01959">
        <ele>14.4</ele>
        <time>2021-10-22T15:54:52Z</time>
      </trkpt>
      <trkpt lat="49.37931" lon="1.01962">
        <ele>14.3</ele>
        <time>2021-10-22T15:54:53Z</time>
      </trkpt>
      <trkpt lat="49.37946" lon="1.01967">
        <ele>14.3</ele>
        <time>2021-10-22T15:54:55Z</time>
      </trkpt>
      <trkpt lat="49.37961" lon="1.01971">
        <ele>14.2</ele>
        <time>2021-10-22T15:54:57Z</time>
      </trkpt>
      <trkpt lat="49.37975" lon="1.01976">
        <ele>14.2</ele>
        <time>2021-10-22T15:54:59Z</time>
      </trkpt>
      <trkpt lat="49.37989" lon="1.0198">
        <ele>14.2</ele>
        <time>2021-10-22T15:55:01Z</time>
      </trkpt>
      <trkpt lat="49.37996" lon="1.01983">
        <ele>14.3</ele>
        <time>2021-10-22T15:55:02Z</time>
      </trkpt>
      <trkpt lat="49.38011" lon="1.01985">
        <ele>14.4</ele>
        <time>2021-10-22T15:55:04Z</time>
      </trkpt>
      <trkpt lat="49.38018" lon="1.01988">
        <ele>14.4</ele>
        <time>2021-10-22T15:55:05Z</time>
      </trkpt>
      <trkpt lat="49.38031" lon="1.01993">
        <ele>14.6</ele>
        <time>2021-10-22T15:55:07Z</time>
      </trkpt>
      <trkpt lat="49.38038" lon="1.01995">
        <ele>14.6</ele>
        <time>2021-10-22T15:55:09Z</time>
      </trkpt>
      <trkpt lat="49.38051" lon="1.01999">
        <ele>14.6</ele>
        <time>2021-10-22T15:55:10Z</time>
      </trkpt>
      <trkpt lat="49.38058" lon="1.02001">
        <ele>14.7</ele>
        <time>2021-10-22T15:55:11Z</time>
      </trkpt>
      <trkpt lat="49.38072" lon="1.02006">
        <ele>14.8</ele>
        <time>2021-10-22T15:55:13Z</time>
      </trkpt>
      <trkpt lat="49.3808" lon="1.02008">
        <ele>14.8</ele>
        <time>2021-10-22T15:55:14Z</time>
      </trkpt>
      <trkpt lat="49.38086" lon="1.0201">
        <ele>14.9</ele>
        <time>2021-10-22T15:55:16Z</time>
      </trkpt>
      <trkpt lat="49.38099" lon="1.02014">
        <ele>15</ele>
        <time>2021-10-22T15:55:17Z</time>
      </trkpt>
      <trkpt lat="49.38113" lon="1.02019">
        <ele>15.2</ele>
        <time>2021-10-22T15:55:19Z</time>
      </trkpt>
      <trkpt lat="49.38119" lon="1.02022">
        <ele>15.3</ele>
        <time>2021-10-22T15:55:20Z</time>
      </trkpt>
      <trkpt lat="49.38132" lon="1.02028">
        <ele>15.4</ele>
        <time>2021-10-22T15:55:22Z</time>
      </trkpt>
      <trkpt lat="49.38145" lon="1.02032">
        <ele>15.6</ele>
        <time>2021-10-22T15:55:24Z</time>
      </trkpt>
      <trkpt lat="49.38152" lon="1.02033">
        <ele>15.7</ele>
        <time>2021-10-22T15:55:25Z</time>
      </trkpt>
      <trkpt lat="49.38165" lon="1.02037">
        <ele>15.8</ele>
        <time>2021-10-22T15:55:27Z</time>
      </trkpt>
      <trkpt lat="49.38172" lon="1.0204">
        <ele>15.9</ele>
        <time>2021-10-22T15:55:29Z</time>
      </trkpt>
      <trkpt lat="49.38185" lon="1.02045">
        <ele>16</ele>
        <time>2021-10-22T15:55:30Z</time>
      </trkpt>
      <trkpt lat="49.38191" lon="1.02048">
        <ele>16</ele>
        <time>2021-10-22T15:55:31Z</time>
      </trkpt>
      <trkpt lat="49.38203" lon="1.02052">
        <ele>16.1</ele>
        <time>2021-10-22T15:55:33Z</time>
      </trkpt>
      <trkpt lat="49.38209" lon="1.02054">
        <ele>16.2</ele>
        <time>2021-10-22T15:55:35Z</time>
      </trkpt>
      <trkpt lat="49.38221" lon="1.0206">
        <ele>16.3</ele>
        <time>2021-10-22T15:55:36Z</time>
      </trkpt>
      <trkpt lat="49.38233" lon="1.02066">
        <ele>16.3</ele>
        <time>2021-10-22T15:55:38Z</time>
      </trkpt>
      <trkpt lat="49.38244" lon="1.02073">
        <ele>16.4</ele>
        <time>2021-10-22T15:55:40Z</time>
      </trkpt>
      <trkpt lat="49.38251" lon="1.02075">
        <ele>16.5</ele>
        <time>2021-10-22T15:55:41Z</time>
      </trkpt>
      <trkpt lat="49.38264" lon="1.0208">
        <ele>16.6</ele>
        <time>2021-10-22T15:55:43Z</time>
      </trkpt>
      <trkpt lat="49.3827" lon="1.02084">
        <ele>16.6</ele>
        <time>2021-10-22T15:55:44Z</time>
      </trkpt>
      <trkpt lat="49.38282" lon="1.02087">
        <ele>16.7</ele>
        <time>2021-10-22T15:55:46Z</time>
      </trkpt>
      <trkpt lat="49.3829" lon="1.02088">
        <ele>16.7</ele>
        <time>2021-10-22T15:55:49Z</time>
      </trkpt>
      <trkpt lat="49.3829" lon="1.02087">
        <ele>16.7</ele>
        <time>2021-10-22T15:55:50Z</time>
      </trkpt>
      <trkpt lat="49.3829" lon="1.02084">
        <ele>16.7</ele>
        <time>2021-10-22T15:55:51Z</time>
      </trkpt>
      <trkpt lat="49.3829" lon="1.02077">
        <ele>16.7</ele>
        <time>2021-10-22T15:55:53Z</time>
      </trkpt>
      <trkpt lat="49.38296" lon="1.02052">
        <ele>16.2</ele>
        <time>2021-10-22T15:55:55Z</time>
      </trkpt>
      <trkpt lat="49.38301" lon="1.02029">
        <ele>15.6</ele>
        <time>2021-10-22T15:55:56Z</time>
      </trkpt>
      <trkpt lat="49.38306" lon="1.02007">
        <ele>15</ele>
        <time>2021-10-22T15:55:58Z</time>
      </trkpt>
      <trkpt lat="49.38313" lon="1.01986">
        <ele>14.5</ele>
        <time>2021-10-22T15:55:59Z</time>
      </trkpt>
      <trkpt lat="49.38318" lon="1.01969">
        <ele>14.1</ele>
        <time>2021-10-22T15:56:00Z</time>
      </trkpt>
      <trkpt lat="49.38323" lon="1.01952">
        <ele>13.8</ele>
        <time>2021-10-22T15:56:01Z</time>
      </trkpt>
      <trkpt lat="49.38331" lon="1.01924">
        <ele>13.2</ele>
        <time>2021-10-22T15:56:04Z</time>
      </trkpt>
      <trkpt lat="49.38337" lon="1.01898">
        <ele>12.7</ele>
        <time>2021-10-22T15:56:05Z</time>
      </trkpt>
      <trkpt lat="49.3834" lon="1.01885">
        <ele>12.4</ele>
        <time>2021-10-22T15:56:06Z</time>
      </trkpt>
      <trkpt lat="49.38343" lon="1.01872">
        <ele>12.2</ele>
        <time>2021-10-22T15:56:07Z</time>
      </trkpt>
      <trkpt lat="49.38347" lon="1.01848">
        <ele>11.7</ele>
        <time>2021-10-22T15:56:09Z</time>
      </trkpt>
      <trkpt lat="49.3835" lon="1.01823">
        <ele>11.3</ele>
        <time>2021-10-22T15:56:11Z</time>
      </trkpt>
      <trkpt lat="49.38353" lon="1.01811">
        <ele>11.1</ele>
        <time>2021-10-22T15:56:12Z</time>
      </trkpt>
      <trkpt lat="49.38355" lon="1.01798">
        <ele>10.8</ele>
        <time>2021-10-22T15:56:13Z</time>
      </trkpt>
      <trkpt lat="49.38357" lon="1.01785">
        <ele>10.6</ele>
        <time>2021-10-22T15:56:14Z</time>
      </trkpt>
      <trkpt lat="49.3836" lon="1.01762">
        <ele>10.1</ele>
        <time>2021-10-22T15:56:16Z</time>
      </trkpt>
      <trkpt lat="49.38362" lon="1.01749">
        <ele>9.9</ele>
        <time>2021-10-22T15:56:17Z</time>
      </trkpt>
      <trkpt lat="49.38364" lon="1.01736">
        <ele>9.7</ele>
        <time>2021-10-22T15:56:18Z</time>
      </trkpt>
      <trkpt lat="49.38369" lon="1.01712">
        <ele>9.2</ele>
        <time>2021-10-22T15:56:20Z</time>
      </trkpt>
      <trkpt lat="49.38373" lon="1.01688">
        <ele>8.8</ele>
        <time>2021-10-22T15:56:22Z</time>
      </trkpt>
      <trkpt lat="49.38375" lon="1.01675">
        <ele>8.6</ele>
        <time>2021-10-22T15:56:23Z</time>
      </trkpt>
      <trkpt lat="49.38378" lon="1.01653">
        <ele>8.3</ele>
        <time>2021-10-22T15:56:25Z</time>
      </trkpt>
      <trkpt lat="49.38381" lon="1.01641">
        <ele>8.2</ele>
        <time>2021-10-22T15:56:26Z</time>
      </trkpt>
      <trkpt lat="49.38385" lon="1.01619">
        <ele>8</ele>
        <time>2021-10-22T15:56:28Z</time>
      </trkpt>
      <trkpt lat="49.3839" lon="1.0161">
        <ele>7.9</ele>
        <time>2021-10-22T15:56:29Z</time>
      </trkpt>
      <trkpt lat="49.38395" lon="1.01604">
        <ele>7.8</ele>
        <time>2021-10-22T15:56:30Z</time>
      </trkpt>
      <trkpt lat="49.38403" lon="1.01598">
        <ele>7.3</ele>
        <time>2021-10-22T15:56:32Z</time>
      </trkpt>
      <trkpt lat="49.38408" lon="1.01602">
        <ele>7.3</ele>
        <time>2021-10-22T15:56:33Z</time>
      </trkpt>
      <trkpt lat="49.38421" lon="1.01606">
        <ele>7.2</ele>
        <time>2021-10-22T15:56:35Z</time>
      </trkpt>
      <trkpt lat="49.38435" lon="1.01612">
        <ele>7.1</ele>
        <time>2021-10-22T15:56:37Z</time>
      </trkpt>
      <trkpt lat="49.38448" lon="1.01618">
        <ele>7.1</ele>
        <time>2021-10-22T15:56:39Z</time>
      </trkpt>
      <trkpt lat="49.38462" lon="1.01625">
        <ele>7</ele>
        <time>2021-10-22T15:56:41Z</time>
      </trkpt>
      <trkpt lat="49.38469" lon="1.01626">
        <ele>7</ele>
        <time>2021-10-22T15:56:42Z</time>
      </trkpt>
      <trkpt lat="49.38476" lon="1.01628">
        <ele>7</ele>
        <time>2021-10-22T15:56:44Z</time>
      </trkpt>
      <trkpt lat="49.38489" lon="1.01635">
        <ele>7</ele>
        <time>2021-10-22T15:56:45Z</time>
      </trkpt>
      <trkpt lat="49.38503" lon="1.0164">
        <ele>7.1</ele>
        <time>2021-10-22T15:56:47Z</time>
      </trkpt>
      <trkpt lat="49.38509" lon="1.01642">
        <ele>7.1</ele>
        <time>2021-10-22T15:56:48Z</time>
      </trkpt>
      <trkpt lat="49.38522" lon="1.01645">
        <ele>7.1</ele>
        <time>2021-10-22T15:56:50Z</time>
      </trkpt>
      <trkpt lat="49.38529" lon="1.01648">
        <ele>7.1</ele>
        <time>2021-10-22T15:56:51Z</time>
      </trkpt>
      <trkpt lat="49.38536" lon="1.01651">
        <ele>7.1</ele>
        <time>2021-10-22T15:56:52Z</time>
      </trkpt>
      <trkpt lat="49.38549" lon="1.01656">
        <ele>7.1</ele>
        <time>2021-10-22T15:56:54Z</time>
      </trkpt>
      <trkpt lat="49.38562" lon="1.01663">
        <ele>7</ele>
        <time>2021-10-22T15:56:56Z</time>
      </trkpt>
      <trkpt lat="49.38568" lon="1.01667">
        <ele>7</ele>
        <time>2021-10-22T15:56:57Z</time>
      </trkpt>
      <trkpt lat="49.38576" lon="1.01669">
        <ele>6.9</ele>
        <time>2021-10-22T15:56:58Z</time>
      </trkpt>
      <trkpt lat="49.38591" lon="1.01675">
        <ele>6.8</ele>
        <time>2021-10-22T15:57:00Z</time>
      </trkpt>
      <trkpt lat="49.38598" lon="1.01679">
        <ele>6.8</ele>
        <time>2021-10-22T15:57:01Z</time>
      </trkpt>
      <trkpt lat="49.3861" lon="1.01685">
        <ele>6.9</ele>
        <time>2021-10-22T15:57:03Z</time>
      </trkpt>
      <trkpt lat="49.38617" lon="1.01688">
        <ele>6.9</ele>
        <time>2021-10-22T15:57:04Z</time>
      </trkpt>
      <trkpt lat="49.38631" lon="1.01694">
        <ele>6.9</ele>
        <time>2021-10-22T15:57:06Z</time>
      </trkpt>
      <trkpt lat="49.38645" lon="1.01699">
        <ele>6.9</ele>
        <time>2021-10-22T15:57:08Z</time>
      </trkpt>
      <trkpt lat="49.38658" lon="1.01703">
        <ele>6.9</ele>
        <time>2021-10-22T15:57:10Z</time>
      </trkpt>
      <trkpt lat="49.38672" lon="1.01707">
        <ele>6.9</ele>
        <time>2021-10-22T15:57:12Z</time>
      </trkpt>
      <trkpt lat="49.38686" lon="1.01712">
        <ele>6.9</ele>
        <time>2021-10-22T15:57:14Z</time>
      </trkpt>
      <trkpt lat="49.38693" lon="1.01713">
        <ele>6.9</ele>
        <time>2021-10-22T15:57:15Z</time>
      </trkpt>
      <trkpt lat="49.38707" lon="1.01719">
        <ele>6.9</ele>
        <time>2021-10-22T15:57:17Z</time>
      </trkpt>
      <trkpt lat="49.38722" lon="1.01724">
        <ele>6.8</ele>
        <time>2021-10-22T15:57:19Z</time>
      </trkpt>
      <trkpt lat="49.38729" lon="1.01727">
        <ele>6.8</ele>
        <time>2021-10-22T15:57:20Z</time>
      </trkpt>
      <trkpt lat="49.38743" lon="1.01733">
        <ele>6.8</ele>
        <time>2021-10-22T15:57:22Z</time>
      </trkpt>
      <trkpt lat="49.38756" lon="1.01738">
        <ele>6.8</ele>
        <time>2021-10-22T15:57:24Z</time>
      </trkpt>
      <trkpt lat="49.38763" lon="1.01741">
        <ele>6.8</ele>
        <time>2021-10-22T15:57:26Z</time>
      </trkpt>
      <trkpt lat="49.38775" lon="1.01745">
        <ele>6.9</ele>
        <time>2021-10-22T15:57:27Z</time>
      </trkpt>
      <trkpt lat="49.38781" lon="1.01749">
        <ele>6.9</ele>
        <time>2021-10-22T15:57:28Z</time>
      </trkpt>
      <trkpt lat="49.38793" lon="1.01757">
        <ele>6.9</ele>
        <time>2021-10-22T15:57:30Z</time>
      </trkpt>
      <trkpt lat="49.38807" lon="1.01762">
        <ele>6.8</ele>
        <time>2021-10-22T15:57:32Z</time>
      </trkpt>
      <trkpt lat="49.38819" lon="1.01767">
        <ele>6.8</ele>
        <time>2021-10-22T15:57:34Z</time>
      </trkpt>
      <trkpt lat="49.38833" lon="1.01772">
        <ele>6.7</ele>
        <time>2021-10-22T15:57:36Z</time>
      </trkpt>
      <trkpt lat="49.38839" lon="1.01774">
        <ele>6.7</ele>
        <time>2021-10-22T15:57:37Z</time>
      </trkpt>
      <trkpt lat="49.38853" lon="1.01777">
        <ele>6.8</ele>
        <time>2021-10-22T15:57:39Z</time>
      </trkpt>
      <trkpt lat="49.3886" lon="1.01779">
        <ele>6.8</ele>
        <time>2021-10-22T15:57:40Z</time>
      </trkpt>
      <trkpt lat="49.38873" lon="1.01783">
        <ele>6.8</ele>
        <time>2021-10-22T15:57:42Z</time>
      </trkpt>
      <trkpt lat="49.3888" lon="1.01786">
        <ele>6.8</ele>
        <time>2021-10-22T15:57:43Z</time>
      </trkpt>
      <trkpt lat="49.38894" lon="1.01792">
        <ele>6.7</ele>
        <time>2021-10-22T15:57:45Z</time>
      </trkpt>
      <trkpt lat="49.38901" lon="1.01795">
        <ele>6.7</ele>
        <time>2021-10-22T15:57:46Z</time>
      </trkpt>
      <trkpt lat="49.38908" lon="1.01798">
        <ele>6.7</ele>
        <time>2021-10-22T15:57:47Z</time>
      </trkpt>
      <trkpt lat="49.38915" lon="1.018">
        <ele>6.7</ele>
        <time>2021-10-22T15:57:48Z</time>
      </trkpt>
      <trkpt lat="49.38928" lon="1.01805">
        <ele>6.7</ele>
        <time>2021-10-22T15:57:50Z</time>
      </trkpt>
      <trkpt lat="49.38942" lon="1.01811">
        <ele>6.7</ele>
        <time>2021-10-22T15:57:52Z</time>
      </trkpt>
      <trkpt lat="49.38956" lon="1.01818">
        <ele>6.8</ele>
        <time>2021-10-22T15:57:54Z</time>
      </trkpt>
      <trkpt lat="49.38969" lon="1.01824">
        <ele>6.8</ele>
        <time>2021-10-22T15:57:56Z</time>
      </trkpt>
      <trkpt lat="49.38975" lon="1.01828">
        <ele>6.8</ele>
        <time>2021-10-22T15:57:57Z</time>
      </trkpt>
      <trkpt lat="49.38989" lon="1.01834">
        <ele>6.8</ele>
        <time>2021-10-22T15:57:59Z</time>
      </trkpt>
      <trkpt lat="49.38995" lon="1.01837">
        <ele>6.9</ele>
        <time>2021-10-22T15:58:00Z</time>
      </trkpt>
      <trkpt lat="49.39001" lon="1.0184">
        <ele>6.9</ele>
        <time>2021-10-22T15:58:01Z</time>
      </trkpt>
      <trkpt lat="49.39013" lon="1.01845">
        <ele>6.9</ele>
        <time>2021-10-22T15:58:03Z</time>
      </trkpt>
      <trkpt lat="49.3902" lon="1.01848">
        <ele>6.9</ele>
        <time>2021-10-22T15:58:04Z</time>
      </trkpt>
      <trkpt lat="49.39033" lon="1.01854">
        <ele>7</ele>
        <time>2021-10-22T15:58:06Z</time>
      </trkpt>
      <trkpt lat="49.39046" lon="1.01858">
        <ele>7</ele>
        <time>2021-10-22T15:58:08Z</time>
      </trkpt>
      <trkpt lat="49.39053" lon="1.0186">
        <ele>7</ele>
        <time>2021-10-22T15:58:09Z</time>
      </trkpt>
      <trkpt lat="49.39066" lon="1.01862">
        <ele>7</ele>
        <time>2021-10-22T15:58:11Z</time>
      </trkpt>
      <trkpt lat="49.39073" lon="1.01864">
        <ele>7</ele>
        <time>2021-10-22T15:58:12Z</time>
      </trkpt>
      <trkpt lat="49.39087" lon="1.01865">
        <ele>7</ele>
        <time>2021-10-22T15:58:14Z</time>
      </trkpt>
      <trkpt lat="49.39095" lon="1.01866">
        <ele>7</ele>
        <time>2021-10-22T15:58:15Z</time>
      </trkpt>
      <trkpt lat="49.39101" lon="1.01866">
        <ele>7</ele>
        <time>2021-10-22T15:58:16Z</time>
      </trkpt>
      <trkpt lat="49.39115" lon="1.01869">
        <ele>7</ele>
        <time>2021-10-22T15:58:18Z</time>
      </trkpt>
      <trkpt lat="49.39121" lon="1.01871">
        <ele>7</ele>
        <time>2021-10-22T15:58:19Z</time>
      </trkpt>
      <trkpt lat="49.39135" lon="1.01873">
        <ele>7</ele>
        <time>2021-10-22T15:58:21Z</time>
      </trkpt>
      <trkpt lat="49.39142" lon="1.01874">
        <ele>7</ele>
        <time>2021-10-22T15:58:22Z</time>
      </trkpt>
      <trkpt lat="49.39155" lon="1.01877">
        <ele>7</ele>
        <time>2021-10-22T15:58:24Z</time>
      </trkpt>
      <trkpt lat="49.39162" lon="1.01878">
        <ele>7</ele>
        <time>2021-10-22T15:58:25Z</time>
      </trkpt>
      <trkpt lat="49.39176" lon="1.01879">
        <ele>7</ele>
        <time>2021-10-22T15:58:27Z</time>
      </trkpt>
      <trkpt lat="49.39189" lon="1.01883">
        <ele>6.9</ele>
        <time>2021-10-22T15:58:29Z</time>
      </trkpt>
      <trkpt lat="49.39196" lon="1.01885">
        <ele>6.9</ele>
        <time>2021-10-22T15:58:30Z</time>
      </trkpt>
      <trkpt lat="49.39204" lon="1.01885">
        <ele>6.9</ele>
        <time>2021-10-22T15:58:31Z</time>
      </trkpt>
      <trkpt lat="49.39218" lon="1.01887">
        <ele>6.8</ele>
        <time>2021-10-22T15:58:33Z</time>
      </trkpt>
      <trkpt lat="49.39232" lon="1.01888">
        <ele>6.8</ele>
        <time>2021-10-22T15:58:36Z</time>
      </trkpt>
      <trkpt lat="49.39246" lon="1.0189">
        <ele>6.8</ele>
        <time>2021-10-22T15:58:37Z</time>
      </trkpt>
      <trkpt lat="49.39262" lon="1.01891">
        <ele>6.8</ele>
        <time>2021-10-22T15:58:39Z</time>
      </trkpt>
      <trkpt lat="49.39269" lon="1.01891">
        <ele>6.8</ele>
        <time>2021-10-22T15:58:40Z</time>
      </trkpt>
      <trkpt lat="49.39284" lon="1.0189">
        <ele>6.8</ele>
        <time>2021-10-22T15:58:43Z</time>
      </trkpt>
      <trkpt lat="49.39299" lon="1.01889">
        <ele>6.8</ele>
        <time>2021-10-22T15:58:44Z</time>
      </trkpt>
      <trkpt lat="49.39307" lon="1.01889">
        <ele>6.8</ele>
        <time>2021-10-22T15:58:45Z</time>
      </trkpt>
      <trkpt lat="49.39322" lon="1.01889">
        <ele>6.8</ele>
        <time>2021-10-22T15:58:47Z</time>
      </trkpt>
      <trkpt lat="49.39337" lon="1.0189">
        <ele>6.7</ele>
        <time>2021-10-22T15:58:49Z</time>
      </trkpt>
      <trkpt lat="49.39352" lon="1.01891">
        <ele>6.8</ele>
        <time>2021-10-22T15:58:51Z</time>
      </trkpt>
      <trkpt lat="49.39359" lon="1.01891">
        <ele>6.9</ele>
        <time>2021-10-22T15:58:52Z</time>
      </trkpt>
      <trkpt lat="49.39366" lon="1.01892">
        <ele>6.9</ele>
        <time>2021-10-22T15:58:53Z</time>
      </trkpt>
      <trkpt lat="49.39374" lon="1.01893">
        <ele>6.9</ele>
        <time>2021-10-22T15:58:54Z</time>
      </trkpt>
      <trkpt lat="49.39389" lon="1.01894">
        <ele>6.9</ele>
        <time>2021-10-22T15:58:56Z</time>
      </trkpt>
      <trkpt lat="49.39403" lon="1.01895">
        <ele>6.9</ele>
        <time>2021-10-22T15:58:58Z</time>
      </trkpt>
      <trkpt lat="49.39418" lon="1.01896">
        <ele>6.9</ele>
        <time>2021-10-22T15:59:00Z</time>
      </trkpt>
      <trkpt lat="49.39433" lon="1.01897">
        <ele>6.9</ele>
        <time>2021-10-22T15:59:02Z</time>
      </trkpt>
      <trkpt lat="49.3944" lon="1.01898">
        <ele>6.8</ele>
        <time>2021-10-22T15:59:03Z</time>
      </trkpt>
      <trkpt lat="49.39455" lon="1.01899">
        <ele>6.8</ele>
        <time>2021-10-22T15:59:05Z</time>
      </trkpt>
      <trkpt lat="49.39462" lon="1.01901">
        <ele>6.8</ele>
        <time>2021-10-22T15:59:06Z</time>
      </trkpt>
      <trkpt lat="49.39476" lon="1.01903">
        <ele>6.7</ele>
        <time>2021-10-22T15:59:08Z</time>
      </trkpt>
      <trkpt lat="49.39483" lon="1.01904">
        <ele>6.7</ele>
        <time>2021-10-22T15:59:09Z</time>
      </trkpt>
      <trkpt lat="49.3949" lon="1.01905">
        <ele>6.7</ele>
        <time>2021-10-22T15:59:10Z</time>
      </trkpt>
      <trkpt lat="49.39504" lon="1.01906">
        <ele>6.7</ele>
        <time>2021-10-22T15:59:12Z</time>
      </trkpt>
      <trkpt lat="49.39518" lon="1.01908">
        <ele>6.7</ele>
        <time>2021-10-22T15:59:14Z</time>
      </trkpt>
      <trkpt lat="49.39524" lon="1.0191">
        <ele>6.6</ele>
        <time>2021-10-22T15:59:15Z</time>
      </trkpt>
      <trkpt lat="49.39531" lon="1.01911">
        <ele>6.6</ele>
        <time>2021-10-22T15:59:16Z</time>
      </trkpt>
      <trkpt lat="49.39545" lon="1.01913">
        <ele>6.6</ele>
        <time>2021-10-22T15:59:18Z</time>
      </trkpt>
      <trkpt lat="49.39552" lon="1.01913">
        <ele>6.6</ele>
        <time>2021-10-22T15:59:19Z</time>
      </trkpt>
      <trkpt lat="49.39564" lon="1.01913">
        <ele>6.5</ele>
        <time>2021-10-22T15:59:21Z</time>
      </trkpt>
      <trkpt lat="49.39576" lon="1.01917">
        <ele>6.4</ele>
        <time>2021-10-22T15:59:23Z</time>
      </trkpt>
      <trkpt lat="49.39592" lon="1.01919">
        <ele>6.3</ele>
        <time>2021-10-22T15:59:25Z</time>
      </trkpt>
      <trkpt lat="49.396" lon="1.01919">
        <ele>6.2</ele>
        <time>2021-10-22T15:59:26Z</time>
      </trkpt>
      <trkpt lat="49.39617" lon="1.01921">
        <ele>6.1</ele>
        <time>2021-10-22T15:59:28Z</time>
      </trkpt>
      <trkpt lat="49.39634" lon="1.01922">
        <ele>6.1</ele>
        <time>2021-10-22T15:59:30Z</time>
      </trkpt>
      <trkpt lat="49.39642" lon="1.01922">
        <ele>6</ele>
        <time>2021-10-22T15:59:31Z</time>
      </trkpt>
      <trkpt lat="49.39651" lon="1.01923">
        <ele>6</ele>
        <time>2021-10-22T15:59:32Z</time>
      </trkpt>
      <trkpt lat="49.39659" lon="1.01924">
        <ele>5.9</ele>
        <time>2021-10-22T15:59:33Z</time>
      </trkpt>
      <trkpt lat="49.39668" lon="1.01925">
        <ele>5.9</ele>
        <time>2021-10-22T15:59:34Z</time>
      </trkpt>
      <trkpt lat="49.39684" lon="1.01924">
        <ele>5.8</ele>
        <time>2021-10-22T15:59:36Z</time>
      </trkpt>
      <trkpt lat="49.39699" lon="1.01926">
        <ele>5.8</ele>
        <time>2021-10-22T15:59:38Z</time>
      </trkpt>
      <trkpt lat="49.39707" lon="1.01927">
        <ele>5.8</ele>
        <time>2021-10-22T15:59:39Z</time>
      </trkpt>
      <trkpt lat="49.39714" lon="1.01927">
        <ele>5.8</ele>
        <time>2021-10-22T15:59:40Z</time>
      </trkpt>
      <trkpt lat="49.39729" lon="1.01928">
        <ele>5.8</ele>
        <time>2021-10-22T15:59:42Z</time>
      </trkpt>
      <trkpt lat="49.39743" lon="1.01931">
        <ele>5.8</ele>
        <time>2021-10-22T15:59:44Z</time>
      </trkpt>
      <trkpt lat="49.39751" lon="1.01932">
        <ele>5.8</ele>
        <time>2021-10-22T15:59:45Z</time>
      </trkpt>
      <trkpt lat="49.39765" lon="1.01933">
        <ele>5.9</ele>
        <time>2021-10-22T15:59:47Z</time>
      </trkpt>
      <trkpt lat="49.3978" lon="1.01934">
        <ele>5.9</ele>
        <time>2021-10-22T15:59:49Z</time>
      </trkpt>
      <trkpt lat="49.39794" lon="1.01936">
        <ele>5.9</ele>
        <time>2021-10-22T15:59:51Z</time>
      </trkpt>
      <trkpt lat="49.39801" lon="1.01936">
        <ele>5.9</ele>
        <time>2021-10-22T15:59:52Z</time>
      </trkpt>
      <trkpt lat="49.39809" lon="1.01937">
        <ele>5.9</ele>
        <time>2021-10-22T15:59:53Z</time>
      </trkpt>
      <trkpt lat="49.39823" lon="1.01939">
        <ele>5.8</ele>
        <time>2021-10-22T15:59:55Z</time>
      </trkpt>
      <trkpt lat="49.39837" lon="1.0194">
        <ele>5.8</ele>
        <time>2021-10-22T15:59:57Z</time>
      </trkpt>
      <trkpt lat="49.39851" lon="1.01941">
        <ele>5.8</ele>
        <time>2021-10-22T15:59:59Z</time>
      </trkpt>
      <trkpt lat="49.39865" lon="1.01942">
        <ele>5.8</ele>
        <time>2021-10-22T16:00:01Z</time>
      </trkpt>
      <trkpt lat="49.39879" lon="1.01944">
        <ele>5.8</ele>
        <time>2021-10-22T16:00:03Z</time>
      </trkpt>
      <trkpt lat="49.39886" lon="1.01945">
        <ele>5.8</ele>
        <time>2021-10-22T16:00:04Z</time>
      </trkpt>
      <trkpt lat="49.39894" lon="1.01945">
        <ele>5.8</ele>
        <time>2021-10-22T16:00:05Z</time>
      </trkpt>
      <trkpt lat="49.39901" lon="1.01946">
        <ele>5.8</ele>
        <time>2021-10-22T16:00:06Z</time>
      </trkpt>
      <trkpt lat="49.39914" lon="1.01948">
        <ele>5.8</ele>
        <time>2021-10-22T16:00:08Z</time>
      </trkpt>
      <trkpt lat="49.39928" lon="1.0195">
        <ele>5.9</ele>
        <time>2021-10-22T16:00:10Z</time>
      </trkpt>
      <trkpt lat="49.39943" lon="1.01951">
        <ele>5.9</ele>
        <time>2021-10-22T16:00:12Z</time>
      </trkpt>
      <trkpt lat="49.39957" lon="1.01953">
        <ele>6</ele>
        <time>2021-10-22T16:00:14Z</time>
      </trkpt>
      <trkpt lat="49.39964" lon="1.01955">
        <ele>6</ele>
        <time>2021-10-22T16:00:15Z</time>
      </trkpt>
      <trkpt lat="49.39971" lon="1.01954">
        <ele>6.1</ele>
        <time>2021-10-22T16:00:16Z</time>
      </trkpt>
      <trkpt lat="49.39985" lon="1.01958">
        <ele>6.2</ele>
        <time>2021-10-22T16:00:18Z</time>
      </trkpt>
      <trkpt lat="49.39996" lon="1.01969">
        <ele>6.2</ele>
        <time>2021-10-22T16:00:20Z</time>
      </trkpt>
      <trkpt lat="49.40002" lon="1.01987">
        <ele>6.3</ele>
        <time>2021-10-22T16:00:22Z</time>
      </trkpt>
      <trkpt lat="49.40006" lon="1.01995">
        <ele>6.3</ele>
        <time>2021-10-22T16:00:23Z</time>
      </trkpt>
      <trkpt lat="49.40018" lon="1.02003">
        <ele>6.4</ele>
        <time>2021-10-22T16:00:25Z</time>
      </trkpt>
      <trkpt lat="49.4003" lon="1.01996">
        <ele>6.4</ele>
        <time>2021-10-22T16:00:27Z</time>
      </trkpt>
      <trkpt lat="49.40037" lon="1.01979">
        <ele>6.5</ele>
        <time>2021-10-22T16:00:29Z</time>
      </trkpt>
      <trkpt lat="49.40042" lon="1.0196">
        <ele>6.5</ele>
        <time>2021-10-22T16:00:31Z</time>
      </trkpt>
      <trkpt lat="49.40047" lon="1.01952">
        <ele>6.5</ele>
        <time>2021-10-22T16:00:32Z</time>
      </trkpt>
      <trkpt lat="49.40058" lon="1.01938">
        <ele>6.5</ele>
        <time>2021-10-22T16:00:34Z</time>
      </trkpt>
      <trkpt lat="49.40062" lon="1.01929">
        <ele>6.4</ele>
        <time>2021-10-22T16:00:35Z</time>
      </trkpt>
      <trkpt lat="49.40072" lon="1.01914">
        <ele>6.4</ele>
        <time>2021-10-22T16:00:37Z</time>
      </trkpt>
      <trkpt lat="49.40076" lon="1.01906">
        <ele>6.4</ele>
        <time>2021-10-22T16:00:38Z</time>
      </trkpt>
      <trkpt lat="49.40087" lon="1.0189">
        <ele>6.4</ele>
        <time>2021-10-22T16:00:40Z</time>
      </trkpt>
      <trkpt lat="49.40097" lon="1.01873">
        <ele>6.4</ele>
        <time>2021-10-22T16:00:42Z</time>
      </trkpt>
      <trkpt lat="49.40101" lon="1.01865">
        <ele>6.4</ele>
        <time>2021-10-22T16:00:43Z</time>
      </trkpt>
      <trkpt lat="49.40106" lon="1.01858">
        <ele>6.4</ele>
        <time>2021-10-22T16:00:44Z</time>
      </trkpt>
      <trkpt lat="49.40114" lon="1.01843">
        <ele>6.4</ele>
        <time>2021-10-22T16:00:46Z</time>
      </trkpt>
      <trkpt lat="49.40119" lon="1.01836">
        <ele>6.4</ele>
        <time>2021-10-22T16:00:47Z</time>
      </trkpt>
      <trkpt lat="49.40123" lon="1.01829">
        <ele>6.4</ele>
        <time>2021-10-22T16:00:48Z</time>
      </trkpt>
      <trkpt lat="49.40133" lon="1.01815">
        <ele>6.3</ele>
        <time>2021-10-22T16:00:50Z</time>
      </trkpt>
      <trkpt lat="49.40142" lon="1.018">
        <ele>6.3</ele>
        <time>2021-10-22T16:00:52Z</time>
      </trkpt>
      <trkpt lat="49.40151" lon="1.01786">
        <ele>6.2</ele>
        <time>2021-10-22T16:00:54Z</time>
      </trkpt>
      <trkpt lat="49.4016" lon="1.01774">
        <ele>6.3</ele>
        <time>2021-10-22T16:00:56Z</time>
      </trkpt>
      <trkpt lat="49.40165" lon="1.01767">
        <ele>6.3</ele>
        <time>2021-10-22T16:00:57Z</time>
      </trkpt>
      <trkpt lat="49.40173" lon="1.01752">
        <ele>6.2</ele>
        <time>2021-10-22T16:00:59Z</time>
      </trkpt>
      <trkpt lat="49.40178" lon="1.01744">
        <ele>6.2</ele>
        <time>2021-10-22T16:01:00Z</time>
      </trkpt>
      <trkpt lat="49.40182" lon="1.01738">
        <ele>6.1</ele>
        <time>2021-10-22T16:01:01Z</time>
      </trkpt>
      <trkpt lat="49.40192" lon="1.01723">
        <ele>6.1</ele>
        <time>2021-10-22T16:01:03Z</time>
      </trkpt>
      <trkpt lat="49.40201" lon="1.01707">
        <ele>6.1</ele>
        <time>2021-10-22T16:01:05Z</time>
      </trkpt>
      <trkpt lat="49.40206" lon="1.01699">
        <ele>6.1</ele>
        <time>2021-10-22T16:01:06Z</time>
      </trkpt>
      <trkpt lat="49.40215" lon="1.01685">
        <ele>6.1</ele>
        <time>2021-10-22T16:01:08Z</time>
      </trkpt>
      <trkpt lat="49.40221" lon="1.01676">
        <ele>6</ele>
        <time>2021-10-22T16:01:09Z</time>
      </trkpt>
      <trkpt lat="49.40231" lon="1.01659">
        <ele>6</ele>
        <time>2021-10-22T16:01:11Z</time>
      </trkpt>
      <trkpt lat="49.40242" lon="1.01642">
        <ele>5.9</ele>
        <time>2021-10-22T16:01:13Z</time>
      </trkpt>
      <trkpt lat="49.40253" lon="1.01628">
        <ele>5.9</ele>
        <time>2021-10-22T16:01:15Z</time>
      </trkpt>
      <trkpt lat="49.40258" lon="1.01621">
        <ele>5.9</ele>
        <time>2021-10-22T16:01:16Z</time>
      </trkpt>
      <trkpt lat="49.40265" lon="1.01615">
        <ele>5.9</ele>
        <time>2021-10-22T16:01:17Z</time>
      </trkpt>
      <trkpt lat="49.40278" lon="1.01604">
        <ele>5.9</ele>
        <time>2021-10-22T16:01:19Z</time>
      </trkpt>
      <trkpt lat="49.40291" lon="1.01594">
        <ele>5.9</ele>
        <time>2021-10-22T16:01:21Z</time>
      </trkpt>
      <trkpt lat="49.40305" lon="1.01587">
        <ele>5.9</ele>
        <time>2021-10-22T16:01:23Z</time>
      </trkpt>
      <trkpt lat="49.40312" lon="1.01585">
        <ele>5.8</ele>
        <time>2021-10-22T16:01:24Z</time>
      </trkpt>
      <trkpt lat="49.40327" lon="1.0158">
        <ele>5.8</ele>
        <time>2021-10-22T16:01:26Z</time>
      </trkpt>
      <trkpt lat="49.40343" lon="1.01579">
        <ele>5.7</ele>
        <time>2021-10-22T16:01:28Z</time>
      </trkpt>
      <trkpt lat="49.40359" lon="1.0158">
        <ele>5.6</ele>
        <time>2021-10-22T16:01:30Z</time>
      </trkpt>
      <trkpt lat="49.40375" lon="1.01583">
        <ele>5.6</ele>
        <time>2021-10-22T16:01:32Z</time>
      </trkpt>
      <trkpt lat="49.40382" lon="1.01584">
        <ele>5.6</ele>
        <time>2021-10-22T16:01:33Z</time>
      </trkpt>
      <trkpt lat="49.4039" lon="1.01586">
        <ele>5.5</ele>
        <time>2021-10-22T16:01:34Z</time>
      </trkpt>
      <trkpt lat="49.40397" lon="1.01588">
        <ele>5.5</ele>
        <time>2021-10-22T16:01:35Z</time>
      </trkpt>
      <trkpt lat="49.40413" lon="1.01592">
        <ele>5.5</ele>
        <time>2021-10-22T16:01:37Z</time>
      </trkpt>
      <trkpt lat="49.40428" lon="1.01596">
        <ele>5.5</ele>
        <time>2021-10-22T16:01:39Z</time>
      </trkpt>
      <trkpt lat="49.40435" lon="1.01599">
        <ele>5.5</ele>
        <time>2021-10-22T16:01:40Z</time>
      </trkpt>
      <trkpt lat="49.40451" lon="1.01601">
        <ele>5.5</ele>
        <time>2021-10-22T16:01:42Z</time>
      </trkpt>
      <trkpt lat="49.40465" lon="1.01604">
        <ele>5.5</ele>
        <time>2021-10-22T16:01:44Z</time>
      </trkpt>
      <trkpt lat="49.4048" lon="1.01607">
        <ele>5.5</ele>
        <time>2021-10-22T16:01:46Z</time>
      </trkpt>
      <trkpt lat="49.40488" lon="1.01609">
        <ele>5.5</ele>
        <time>2021-10-22T16:01:47Z</time>
      </trkpt>
      <trkpt lat="49.40502" lon="1.01611">
        <ele>5.5</ele>
        <time>2021-10-22T16:01:49Z</time>
      </trkpt>
      <trkpt lat="49.4051" lon="1.01614">
        <ele>5.5</ele>
        <time>2021-10-22T16:01:50Z</time>
      </trkpt>
      <trkpt lat="49.40517" lon="1.01617">
        <ele>5.5</ele>
        <time>2021-10-22T16:01:51Z</time>
      </trkpt>
      <trkpt lat="49.40524" lon="1.01619">
        <ele>5.5</ele>
        <time>2021-10-22T16:01:52Z</time>
      </trkpt>
      <trkpt lat="49.40539" lon="1.01621">
        <ele>5.5</ele>
        <time>2021-10-22T16:01:54Z</time>
      </trkpt>
      <trkpt lat="49.40546" lon="1.01622">
        <ele>5.5</ele>
        <time>2021-10-22T16:01:55Z</time>
      </trkpt>
      <trkpt lat="49.40561" lon="1.01626">
        <ele>5.6</ele>
        <time>2021-10-22T16:01:57Z</time>
      </trkpt>
      <trkpt lat="49.40569" lon="1.01627">
        <ele>5.7</ele>
        <time>2021-10-22T16:01:58Z</time>
      </trkpt>
      <trkpt lat="49.40576" lon="1.0163">
        <ele>5.7</ele>
        <time>2021-10-22T16:01:59Z</time>
      </trkpt>
      <trkpt lat="49.40591" lon="1.01633">
        <ele>5.7</ele>
        <time>2021-10-22T16:02:01Z</time>
      </trkpt>
      <trkpt lat="49.40599" lon="1.01633">
        <ele>5.7</ele>
        <time>2021-10-22T16:02:02Z</time>
      </trkpt>
      <trkpt lat="49.40614" lon="1.01638">
        <ele>5.7</ele>
        <time>2021-10-22T16:02:04Z</time>
      </trkpt>
      <trkpt lat="49.40622" lon="1.0164">
        <ele>5.6</ele>
        <time>2021-10-22T16:02:05Z</time>
      </trkpt>
      <trkpt lat="49.40637" lon="1.01644">
        <ele>5.6</ele>
        <time>2021-10-22T16:02:07Z</time>
      </trkpt>
      <trkpt lat="49.40645" lon="1.01646">
        <ele>5.6</ele>
        <time>2021-10-22T16:02:08Z</time>
      </trkpt>
      <trkpt lat="49.4066" lon="1.01648">
        <ele>5.7</ele>
        <time>2021-10-22T16:02:10Z</time>
      </trkpt>
      <trkpt lat="49.40668" lon="1.0165">
        <ele>5.7</ele>
        <time>2021-10-22T16:02:11Z</time>
      </trkpt>
      <trkpt lat="49.40675" lon="1.01652">
        <ele>5.7</ele>
        <time>2021-10-22T16:02:12Z</time>
      </trkpt>
      <trkpt lat="49.4069" lon="1.01658">
        <ele>5.6</ele>
        <time>2021-10-22T16:02:14Z</time>
      </trkpt>
      <trkpt lat="49.40697" lon="1.01659">
        <ele>5.6</ele>
        <time>2021-10-22T16:02:15Z</time>
      </trkpt>
      <trkpt lat="49.40713" lon="1.01663">
        <ele>5.6</ele>
        <time>2021-10-22T16:02:17Z</time>
      </trkpt>
      <trkpt lat="49.4072" lon="1.01667">
        <ele>5.6</ele>
        <time>2021-10-22T16:02:18Z</time>
      </trkpt>
      <trkpt lat="49.40734" lon="1.01673">
        <ele>5.6</ele>
        <time>2021-10-22T16:02:20Z</time>
      </trkpt>
      <trkpt lat="49.40741" lon="1.01677">
        <ele>5.6</ele>
        <time>2021-10-22T16:02:21Z</time>
      </trkpt>
      <trkpt lat="49.40748" lon="1.0168">
        <ele>5.5</ele>
        <time>2021-10-22T16:02:22Z</time>
      </trkpt>
      <trkpt lat="49.40756" lon="1.01683">
        <ele>5.5</ele>
        <time>2021-10-22T16:02:23Z</time>
      </trkpt>
      <trkpt lat="49.40771" lon="1.0169">
        <ele>5.5</ele>
        <time>2021-10-22T16:02:25Z</time>
      </trkpt>
      <trkpt lat="49.40778" lon="1.01693">
        <ele>5.5</ele>
        <time>2021-10-22T16:02:26Z</time>
      </trkpt>
      <trkpt lat="49.40792" lon="1.01699">
        <ele>5.4</ele>
        <time>2021-10-22T16:02:28Z</time>
      </trkpt>
      <trkpt lat="49.408" lon="1.017">
        <ele>5.4</ele>
        <time>2021-10-22T16:02:29Z</time>
      </trkpt>
      <trkpt lat="49.40814" lon="1.01705">
        <ele>5.4</ele>
        <time>2021-10-22T16:02:31Z</time>
      </trkpt>
      <trkpt lat="49.4082" lon="1.01708">
        <ele>5.3</ele>
        <time>2021-10-22T16:02:32Z</time>
      </trkpt>
      <trkpt lat="49.40834" lon="1.01715">
        <ele>5.3</ele>
        <time>2021-10-22T16:02:34Z</time>
      </trkpt>
      <trkpt lat="49.40842" lon="1.01717">
        <ele>5.3</ele>
        <time>2021-10-22T16:02:35Z</time>
      </trkpt>
      <trkpt lat="49.40856" lon="1.01721">
        <ele>5.3</ele>
        <time>2021-10-22T16:02:37Z</time>
      </trkpt>
      <trkpt lat="49.40863" lon="1.01723">
        <ele>5.3</ele>
        <time>2021-10-22T16:02:38Z</time>
      </trkpt>
      <trkpt lat="49.40878" lon="1.01726">
        <ele>5.2</ele>
        <time>2021-10-22T16:02:40Z</time>
      </trkpt>
      <trkpt lat="49.40886" lon="1.01728">
        <ele>5.3</ele>
        <time>2021-10-22T16:02:41Z</time>
      </trkpt>
      <trkpt lat="49.409" lon="1.01733">
        <ele>5.3</ele>
        <time>2021-10-22T16:02:43Z</time>
      </trkpt>
      <trkpt lat="49.40906" lon="1.01736">
        <ele>5.4</ele>
        <time>2021-10-22T16:02:44Z</time>
      </trkpt>
      <trkpt lat="49.40919" lon="1.01741">
        <ele>5.4</ele>
        <time>2021-10-22T16:02:46Z</time>
      </trkpt>
      <trkpt lat="49.40933" lon="1.01747">
        <ele>5.4</ele>
        <time>2021-10-22T16:02:48Z</time>
      </trkpt>
      <trkpt lat="49.40946" lon="1.01752">
        <ele>5.3</ele>
        <time>2021-10-22T16:02:50Z</time>
      </trkpt>
      <trkpt lat="49.40958" lon="1.01756">
        <ele>5.3</ele>
        <time>2021-10-22T16:02:52Z</time>
      </trkpt>
      <trkpt lat="49.40964" lon="1.01758">
        <ele>5.3</ele>
        <time>2021-10-22T16:02:53Z</time>
      </trkpt>
      <trkpt lat="49.40971" lon="1.01761">
        <ele>5.3</ele>
        <time>2021-10-22T16:02:54Z</time>
      </trkpt>
      <trkpt lat="49.40979" lon="1.01764">
        <ele>5.4</ele>
        <time>2021-10-22T16:02:55Z</time>
      </trkpt>
      <trkpt lat="49.40986" lon="1.01767">
        <ele>5.4</ele>
        <time>2021-10-22T16:02:56Z</time>
      </trkpt>
      <trkpt lat="49.40993" lon="1.0177">
        <ele>5.4</ele>
        <time>2021-10-22T16:02:57Z</time>
      </trkpt>
      <trkpt lat="49.41001" lon="1.01771">
        <ele>5.4</ele>
        <time>2021-10-22T16:02:58Z</time>
      </trkpt>
      <trkpt lat="49.41016" lon="1.01774">
        <ele>5.5</ele>
        <time>2021-10-22T16:03:00Z</time>
      </trkpt>
      <trkpt lat="49.41024" lon="1.01777">
        <ele>5.5</ele>
        <time>2021-10-22T16:03:01Z</time>
      </trkpt>
      <trkpt lat="49.41031" lon="1.0178">
        <ele>5.5</ele>
        <time>2021-10-22T16:03:02Z</time>
      </trkpt>
      <trkpt lat="49.41038" lon="1.01782">
        <ele>5.5</ele>
        <time>2021-10-22T16:03:03Z</time>
      </trkpt>
      <trkpt lat="49.41053" lon="1.01786">
        <ele>5.4</ele>
        <time>2021-10-22T16:03:05Z</time>
      </trkpt>
      <trkpt lat="49.4106" lon="1.01789">
        <ele>5.4</ele>
        <time>2021-10-22T16:03:06Z</time>
      </trkpt>
      <trkpt lat="49.41067" lon="1.01791">
        <ele>5.4</ele>
        <time>2021-10-22T16:03:07Z</time>
      </trkpt>
      <trkpt lat="49.41081" lon="1.01796">
        <ele>5.4</ele>
        <time>2021-10-22T16:03:09Z</time>
      </trkpt>
      <trkpt lat="49.41095" lon="1.018">
        <ele>5.3</ele>
        <time>2021-10-22T16:03:11Z</time>
      </trkpt>
      <trkpt lat="49.41102" lon="1.01803">
        <ele>5.3</ele>
        <time>2021-10-22T16:03:12Z</time>
      </trkpt>
      <trkpt lat="49.41115" lon="1.01809">
        <ele>5.2</ele>
        <time>2021-10-22T16:03:14Z</time>
      </trkpt>
      <trkpt lat="49.41129" lon="1.01818">
        <ele>5.2</ele>
        <time>2021-10-22T16:03:16Z</time>
      </trkpt>
      <trkpt lat="49.41143" lon="1.01824">
        <ele>5.2</ele>
        <time>2021-10-22T16:03:18Z</time>
      </trkpt>
      <trkpt lat="49.41156" lon="1.01831">
        <ele>5.2</ele>
        <time>2021-10-22T16:03:20Z</time>
      </trkpt>
      <trkpt lat="49.4117" lon="1.01838">
        <ele>5.3</ele>
        <time>2021-10-22T16:03:22Z</time>
      </trkpt>
      <trkpt lat="49.41184" lon="1.01845">
        <ele>5.4</ele>
        <time>2021-10-22T16:03:24Z</time>
      </trkpt>
      <trkpt lat="49.41198" lon="1.01851">
        <ele>5.4</ele>
        <time>2021-10-22T16:03:26Z</time>
      </trkpt>
      <trkpt lat="49.4121" lon="1.01856">
        <ele>5.4</ele>
        <time>2021-10-22T16:03:28Z</time>
      </trkpt>
      <trkpt lat="49.41217" lon="1.0186">
        <ele>5.4</ele>
        <time>2021-10-22T16:03:29Z</time>
      </trkpt>
      <trkpt lat="49.41224" lon="1.01865">
        <ele>5.3</ele>
        <time>2021-10-22T16:03:30Z</time>
      </trkpt>
      <trkpt lat="49.41238" lon="1.01874">
        <ele>5.3</ele>
        <time>2021-10-22T16:03:32Z</time>
      </trkpt>
      <trkpt lat="49.41245" lon="1.01878">
        <ele>5.3</ele>
        <time>2021-10-22T16:03:33Z</time>
      </trkpt>
      <trkpt lat="49.41259" lon="1.01888">
        <ele>5.4</ele>
        <time>2021-10-22T16:03:35Z</time>
      </trkpt>
      <trkpt lat="49.41266" lon="1.01892">
        <ele>5.4</ele>
        <time>2021-10-22T16:03:36Z</time>
      </trkpt>
      <trkpt lat="49.4128" lon="1.019">
        <ele>5.5</ele>
        <time>2021-10-22T16:03:38Z</time>
      </trkpt>
      <trkpt lat="49.41295" lon="1.01907">
        <ele>5.5</ele>
        <time>2021-10-22T16:03:40Z</time>
      </trkpt>
      <trkpt lat="49.41302" lon="1.01911">
        <ele>5.5</ele>
        <time>2021-10-22T16:03:41Z</time>
      </trkpt>
      <trkpt lat="49.41309" lon="1.01915">
        <ele>5.5</ele>
        <time>2021-10-22T16:03:43Z</time>
      </trkpt>
      <trkpt lat="49.41323" lon="1.01922">
        <ele>5.5</ele>
        <time>2021-10-22T16:03:44Z</time>
      </trkpt>
      <trkpt lat="49.41329" lon="1.01927">
        <ele>5.5</ele>
        <time>2021-10-22T16:03:45Z</time>
      </trkpt>
      <trkpt lat="49.41344" lon="1.01934">
        <ele>5.6</ele>
        <time>2021-10-22T16:03:47Z</time>
      </trkpt>
      <trkpt lat="49.41351" lon="1.01939">
        <ele>5.6</ele>
        <time>2021-10-22T16:03:48Z</time>
      </trkpt>
      <trkpt lat="49.41365" lon="1.01948">
        <ele>5.7</ele>
        <time>2021-10-22T16:03:50Z</time>
      </trkpt>
      <trkpt lat="49.41371" lon="1.01953">
        <ele>5.7</ele>
        <time>2021-10-22T16:03:51Z</time>
      </trkpt>
      <trkpt lat="49.41383" lon="1.01962">
        <ele>5.8</ele>
        <time>2021-10-22T16:03:53Z</time>
      </trkpt>
      <trkpt lat="49.41388" lon="1.01967">
        <ele>5.8</ele>
        <time>2021-10-22T16:03:54Z</time>
      </trkpt>
      <trkpt lat="49.41395" lon="1.0197">
        <ele>5.8</ele>
        <time>2021-10-22T16:03:56Z</time>
      </trkpt>
      <trkpt lat="49.41409" lon="1.01977">
        <ele>5.7</ele>
        <time>2021-10-22T16:03:57Z</time>
      </trkpt>
      <trkpt lat="49.41423" lon="1.01984">
        <ele>5.6</ele>
        <time>2021-10-22T16:03:59Z</time>
      </trkpt>
      <trkpt lat="49.41436" lon="1.01988">
        <ele>5.6</ele>
        <time>2021-10-22T16:04:01Z</time>
      </trkpt>
      <trkpt lat="49.41443" lon="1.0199">
        <ele>5.6</ele>
        <time>2021-10-22T16:04:03Z</time>
      </trkpt>
      <trkpt lat="49.41457" lon="1.01996">
        <ele>5.6</ele>
        <time>2021-10-22T16:04:04Z</time>
      </trkpt>
      <trkpt lat="49.4147" lon="1.02003">
        <ele>5.5</ele>
        <time>2021-10-22T16:04:06Z</time>
      </trkpt>
      <trkpt lat="49.41477" lon="1.02007">
        <ele>5.5</ele>
        <time>2021-10-22T16:04:07Z</time>
      </trkpt>
      <trkpt lat="49.4149" lon="1.02012">
        <ele>5.5</ele>
        <time>2021-10-22T16:04:09Z</time>
      </trkpt>
      <trkpt lat="49.41503" lon="1.02021">
        <ele>5.5</ele>
        <time>2021-10-22T16:04:11Z</time>
      </trkpt>
      <trkpt lat="49.41515" lon="1.02029">
        <ele>5.5</ele>
        <time>2021-10-22T16:04:13Z</time>
      </trkpt>
      <trkpt lat="49.41522" lon="1.02034">
        <ele>5.5</ele>
        <time>2021-10-22T16:04:14Z</time>
      </trkpt>
      <trkpt lat="49.41535" lon="1.02042">
        <ele>5.5</ele>
        <time>2021-10-22T16:04:16Z</time>
      </trkpt>
      <trkpt lat="49.41542" lon="1.02047">
        <ele>5.5</ele>
        <time>2021-10-22T16:04:17Z</time>
      </trkpt>
      <trkpt lat="49.41549" lon="1.02051">
        <ele>5.5</ele>
        <time>2021-10-22T16:04:19Z</time>
      </trkpt>
      <trkpt lat="49.41562" lon="1.02062">
        <ele>5.5</ele>
        <time>2021-10-22T16:04:20Z</time>
      </trkpt>
      <trkpt lat="49.41568" lon="1.02069">
        <ele>5.5</ele>
        <time>2021-10-22T16:04:22Z</time>
      </trkpt>
      <trkpt lat="49.41579" lon="1.02082">
        <ele>5.5</ele>
        <time>2021-10-22T16:04:23Z</time>
      </trkpt>
      <trkpt lat="49.41589" lon="1.02097">
        <ele>5.4</ele>
        <time>2021-10-22T16:04:25Z</time>
      </trkpt>
      <trkpt lat="49.41594" lon="1.02105">
        <ele>5.4</ele>
        <time>2021-10-22T16:04:26Z</time>
      </trkpt>
      <trkpt lat="49.41602" lon="1.02122">
        <ele>5.4</ele>
        <time>2021-10-22T16:04:28Z</time>
      </trkpt>
      <trkpt lat="49.41611" lon="1.02138">
        <ele>5.4</ele>
        <time>2021-10-22T16:04:31Z</time>
      </trkpt>
      <trkpt lat="49.41621" lon="1.02154">
        <ele>5.4</ele>
        <time>2021-10-22T16:04:32Z</time>
      </trkpt>
      <trkpt lat="49.41629" lon="1.02171">
        <ele>5.3</ele>
        <time>2021-10-22T16:04:34Z</time>
      </trkpt>
      <trkpt lat="49.41633" lon="1.02179">
        <ele>5.3</ele>
        <time>2021-10-22T16:04:36Z</time>
      </trkpt>
      <trkpt lat="49.41642" lon="1.02197">
        <ele>5.2</ele>
        <time>2021-10-22T16:04:37Z</time>
      </trkpt>
      <trkpt lat="49.4165" lon="1.02214">
        <ele>5.2</ele>
        <time>2021-10-22T16:04:39Z</time>
      </trkpt>
      <trkpt lat="49.41655" lon="1.02222">
        <ele>5.2</ele>
        <time>2021-10-22T16:04:40Z</time>
      </trkpt>
      <trkpt lat="49.41664" lon="1.02237">
        <ele>5.2</ele>
        <time>2021-10-22T16:04:42Z</time>
      </trkpt>
      <trkpt lat="49.41668" lon="1.02245">
        <ele>5.2</ele>
        <time>2021-10-22T16:04:43Z</time>
      </trkpt>
      <trkpt lat="49.41673" lon="1.02253">
        <ele>5.2</ele>
        <time>2021-10-22T16:04:44Z</time>
      </trkpt>
      <trkpt lat="49.41677" lon="1.0226">
        <ele>5.2</ele>
        <time>2021-10-22T16:04:45Z</time>
      </trkpt>
      <trkpt lat="49.41687" lon="1.02277">
        <ele>5.2</ele>
        <time>2021-10-22T16:04:47Z</time>
      </trkpt>
      <trkpt lat="49.41692" lon="1.02286">
        <ele>5.2</ele>
        <time>2021-10-22T16:04:48Z</time>
      </trkpt>
      <trkpt lat="49.41702" lon="1.02302">
        <ele>5.1</ele>
        <time>2021-10-22T16:04:50Z</time>
      </trkpt>
      <trkpt lat="49.41714" lon="1.02317">
        <ele>5.2</ele>
        <time>2021-10-22T16:04:52Z</time>
      </trkpt>
      <trkpt lat="49.41725" lon="1.02331">
        <ele>5.2</ele>
        <time>2021-10-22T16:04:54Z</time>
      </trkpt>
      <trkpt lat="49.41731" lon="1.02337">
        <ele>5.2</ele>
        <time>2021-10-22T16:04:55Z</time>
      </trkpt>
      <trkpt lat="49.41737" lon="1.02343">
        <ele>5.2</ele>
        <time>2021-10-22T16:04:57Z</time>
      </trkpt>
      <trkpt lat="49.41749" lon="1.02353">
        <ele>5.2</ele>
        <time>2021-10-22T16:04:58Z</time>
      </trkpt>
      <trkpt lat="49.41756" lon="1.02359">
        <ele>5.2</ele>
        <time>2021-10-22T16:04:59Z</time>
      </trkpt>
      <trkpt lat="49.41769" lon="1.02369">
        <ele>5.3</ele>
        <time>2021-10-22T16:05:01Z</time>
      </trkpt>
      <trkpt lat="49.41776" lon="1.02374">
        <ele>5.3</ele>
        <time>2021-10-22T16:05:02Z</time>
      </trkpt>
      <trkpt lat="49.41782" lon="1.02378">
        <ele>5.3</ele>
        <time>2021-10-22T16:05:03Z</time>
      </trkpt>
      <trkpt lat="49.41796" lon="1.02388">
        <ele>5.3</ele>
        <time>2021-10-22T16:05:05Z</time>
      </trkpt>
      <trkpt lat="49.41809" lon="1.02398">
        <ele>5.3</ele>
        <time>2021-10-22T16:05:07Z</time>
      </trkpt>
      <trkpt lat="49.41816" lon="1.02403">
        <ele>5.3</ele>
        <time>2021-10-22T16:05:08Z</time>
      </trkpt>
      <trkpt lat="49.41829" lon="1.02414">
        <ele>5.3</ele>
        <time>2021-10-22T16:05:10Z</time>
      </trkpt>
      <trkpt lat="49.41836" lon="1.0242">
        <ele>5.3</ele>
        <time>2021-10-22T16:05:11Z</time>
      </trkpt>
      <trkpt lat="49.4185" lon="1.02428">
        <ele>5.4</ele>
        <time>2021-10-22T16:05:13Z</time>
      </trkpt>
      <trkpt lat="49.41857" lon="1.02432">
        <ele>5.4</ele>
        <time>2021-10-22T16:05:14Z</time>
      </trkpt>
      <trkpt lat="49.41864" lon="1.02436">
        <ele>5.4</ele>
        <time>2021-10-22T16:05:15Z</time>
      </trkpt>
      <trkpt lat="49.41878" lon="1.02443">
        <ele>5.4</ele>
        <time>2021-10-22T16:05:17Z</time>
      </trkpt>
      <trkpt lat="49.41886" lon="1.02446">
        <ele>5.4</ele>
        <time>2021-10-22T16:05:18Z</time>
      </trkpt>
      <trkpt lat="49.419" lon="1.02453">
        <ele>5.5</ele>
        <time>2021-10-22T16:05:20Z</time>
      </trkpt>
      <trkpt lat="49.41908" lon="1.02456">
        <ele>5.6</ele>
        <time>2021-10-22T16:05:22Z</time>
      </trkpt>
      <trkpt lat="49.41922" lon="1.02462">
        <ele>5.6</ele>
        <time>2021-10-22T16:05:23Z</time>
      </trkpt>
      <trkpt lat="49.41929" lon="1.02466">
        <ele>5.6</ele>
        <time>2021-10-22T16:05:24Z</time>
      </trkpt>
      <trkpt lat="49.41943" lon="1.02473">
        <ele>5.7</ele>
        <time>2021-10-22T16:05:26Z</time>
      </trkpt>
      <trkpt lat="49.4195" lon="1.02476">
        <ele>5.7</ele>
        <time>2021-10-22T16:05:27Z</time>
      </trkpt>
      <trkpt lat="49.41957" lon="1.0248">
        <ele>5.8</ele>
        <time>2021-10-22T16:05:28Z</time>
      </trkpt>
      <trkpt lat="49.41971" lon="1.02488">
        <ele>5.8</ele>
        <time>2021-10-22T16:05:30Z</time>
      </trkpt>
      <trkpt lat="49.41978" lon="1.02491">
        <ele>5.8</ele>
        <time>2021-10-22T16:05:31Z</time>
      </trkpt>
      <trkpt lat="49.41986" lon="1.02493">
        <ele>5.9</ele>
        <time>2021-10-22T16:05:32Z</time>
      </trkpt>
      <trkpt lat="49.42001" lon="1.02498">
        <ele>5.8</ele>
        <time>2021-10-22T16:05:34Z</time>
      </trkpt>
      <trkpt lat="49.42017" lon="1.02503">
        <ele>5.7</ele>
        <time>2021-10-22T16:05:36Z</time>
      </trkpt>
      <trkpt lat="49.42033" lon="1.02508">
        <ele>5.8</ele>
        <time>2021-10-22T16:05:38Z</time>
      </trkpt>
      <trkpt lat="49.42041" lon="1.02511">
        <ele>5.8</ele>
        <time>2021-10-22T16:05:39Z</time>
      </trkpt>
      <trkpt lat="49.42055" lon="1.02516">
        <ele>5.8</ele>
        <time>2021-10-22T16:05:41Z</time>
      </trkpt>
      <trkpt lat="49.42062" lon="1.02518">
        <ele>5.8</ele>
        <time>2021-10-22T16:05:42Z</time>
      </trkpt>
      <trkpt lat="49.42077" lon="1.02524">
        <ele>5.8</ele>
        <time>2021-10-22T16:05:44Z</time>
      </trkpt>
      <trkpt lat="49.42091" lon="1.02533">
        <ele>5.8</ele>
        <time>2021-10-22T16:05:46Z</time>
      </trkpt>
      <trkpt lat="49.42098" lon="1.02536">
        <ele>5.8</ele>
        <time>2021-10-22T16:05:47Z</time>
      </trkpt>
      <trkpt lat="49.42105" lon="1.02541">
        <ele>5.8</ele>
        <time>2021-10-22T16:05:48Z</time>
      </trkpt>
      <trkpt lat="49.42118" lon="1.02555">
        <ele>5.8</ele>
        <time>2021-10-22T16:05:50Z</time>
      </trkpt>
      <trkpt lat="49.42132" lon="1.02566">
        <ele>5.9</ele>
        <time>2021-10-22T16:05:53Z</time>
      </trkpt>
      <trkpt lat="49.42145" lon="1.02576">
        <ele>6</ele>
        <time>2021-10-22T16:05:54Z</time>
      </trkpt>
      <trkpt lat="49.42152" lon="1.02582">
        <ele>6</ele>
        <time>2021-10-22T16:05:56Z</time>
      </trkpt>
      <trkpt lat="49.42165" lon="1.02592">
        <ele>6</ele>
        <time>2021-10-22T16:05:58Z</time>
      </trkpt>
      <trkpt lat="49.42178" lon="1.02604">
        <ele>6</ele>
        <time>2021-10-22T16:05:59Z</time>
      </trkpt>
      <trkpt lat="49.42191" lon="1.02616">
        <ele>6</ele>
        <time>2021-10-22T16:06:01Z</time>
      </trkpt>
      <trkpt lat="49.42197" lon="1.02622">
        <ele>6</ele>
        <time>2021-10-22T16:06:02Z</time>
      </trkpt>
      <trkpt lat="49.42204" lon="1.02629">
        <ele>6</ele>
        <time>2021-10-22T16:06:04Z</time>
      </trkpt>
      <trkpt lat="49.42217" lon="1.02641">
        <ele>6.1</ele>
        <time>2021-10-22T16:06:05Z</time>
      </trkpt>
      <trkpt lat="49.42224" lon="1.02648">
        <ele>6.1</ele>
        <time>2021-10-22T16:06:06Z</time>
      </trkpt>
      <trkpt lat="49.42238" lon="1.02661">
        <ele>6.1</ele>
        <time>2021-10-22T16:06:08Z</time>
      </trkpt>
      <trkpt lat="49.42244" lon="1.02666">
        <ele>6.1</ele>
        <time>2021-10-22T16:06:09Z</time>
      </trkpt>
      <trkpt lat="49.42256" lon="1.02674">
        <ele>6</ele>
        <time>2021-10-22T16:06:11Z</time>
      </trkpt>
      <trkpt lat="49.42262" lon="1.02682">
        <ele>6</ele>
        <time>2021-10-22T16:06:12Z</time>
      </trkpt>
      <trkpt lat="49.42274" lon="1.02697">
        <ele>5.9</ele>
        <time>2021-10-22T16:06:14Z</time>
      </trkpt>
      <trkpt lat="49.4228" lon="1.02704">
        <ele>5.8</ele>
        <time>2021-10-22T16:06:15Z</time>
      </trkpt>
      <trkpt lat="49.42287" lon="1.02711">
        <ele>5.8</ele>
        <time>2021-10-22T16:06:17Z</time>
      </trkpt>
      <trkpt lat="49.423" lon="1.02721">
        <ele>5.8</ele>
        <time>2021-10-22T16:06:18Z</time>
      </trkpt>
      <trkpt lat="49.42307" lon="1.02727">
        <ele>5.9</ele>
        <time>2021-10-22T16:06:19Z</time>
      </trkpt>
      <trkpt lat="49.4232" lon="1.0274">
        <ele>5.9</ele>
        <time>2021-10-22T16:06:21Z</time>
      </trkpt>
      <trkpt lat="49.42327" lon="1.02747">
        <ele>5.9</ele>
        <time>2021-10-22T16:06:22Z</time>
      </trkpt>
      <trkpt lat="49.42333" lon="1.02753">
        <ele>5.9</ele>
        <time>2021-10-22T16:06:23Z</time>
      </trkpt>
      <trkpt lat="49.42346" lon="1.02765">
        <ele>5.8</ele>
        <time>2021-10-22T16:06:25Z</time>
      </trkpt>
      <trkpt lat="49.42361" lon="1.02776">
        <ele>5.7</ele>
        <time>2021-10-22T16:06:27Z</time>
      </trkpt>
      <trkpt lat="49.42376" lon="1.02787">
        <ele>5.6</ele>
        <time>2021-10-22T16:06:29Z</time>
      </trkpt>
      <trkpt lat="49.4239" lon="1.02798">
        <ele>5.7</ele>
        <time>2021-10-22T16:06:31Z</time>
      </trkpt>
      <trkpt lat="49.42396" lon="1.02804">
        <ele>5.7</ele>
        <time>2021-10-22T16:06:32Z</time>
      </trkpt>
      <trkpt lat="49.42403" lon="1.0281">
        <ele>5.8</ele>
        <time>2021-10-22T16:06:33Z</time>
      </trkpt>
      <trkpt lat="49.4241" lon="1.02816">
        <ele>5.8</ele>
        <time>2021-10-22T16:06:35Z</time>
      </trkpt>
      <trkpt lat="49.42423" lon="1.02828">
        <ele>5.8</ele>
        <time>2021-10-22T16:06:37Z</time>
      </trkpt>
      <trkpt lat="49.42435" lon="1.02838">
        <ele>5.8</ele>
        <time>2021-10-22T16:06:38Z</time>
      </trkpt>
      <trkpt lat="49.42442" lon="1.02845">
        <ele>5.8</ele>
        <time>2021-10-22T16:06:40Z</time>
      </trkpt>
      <trkpt lat="49.42448" lon="1.02852">
        <ele>5.8</ele>
        <time>2021-10-22T16:06:41Z</time>
      </trkpt>
      <trkpt lat="49.42461" lon="1.02862">
        <ele>5.8</ele>
        <time>2021-10-22T16:06:43Z</time>
      </trkpt>
      <trkpt lat="49.42475" lon="1.02875">
        <ele>5.9</ele>
        <time>2021-10-22T16:06:44Z</time>
      </trkpt>
      <trkpt lat="49.42482" lon="1.02881">
        <ele>5.9</ele>
        <time>2021-10-22T16:06:45Z</time>
      </trkpt>
      <trkpt lat="49.42489" lon="1.02887">
        <ele>5.9</ele>
        <time>2021-10-22T16:06:46Z</time>
      </trkpt>
      <trkpt lat="49.42502" lon="1.02899">
        <ele>5.9</ele>
        <time>2021-10-22T16:06:49Z</time>
      </trkpt>
      <trkpt lat="49.42515" lon="1.02912">
        <ele>5.9</ele>
        <time>2021-10-22T16:06:50Z</time>
      </trkpt>
      <trkpt lat="49.42521" lon="1.02917">
        <ele>5.9</ele>
        <time>2021-10-22T16:06:51Z</time>
      </trkpt>
      <trkpt lat="49.42527" lon="1.02924">
        <ele>5.9</ele>
        <time>2021-10-22T16:06:53Z</time>
      </trkpt>
      <trkpt lat="49.4254" lon="1.02936">
        <ele>5.9</ele>
        <time>2021-10-22T16:06:55Z</time>
      </trkpt>
      <trkpt lat="49.42552" lon="1.02947">
        <ele>5.9</ele>
        <time>2021-10-22T16:06:56Z</time>
      </trkpt>
      <trkpt lat="49.42565" lon="1.02959">
        <ele>5.9</ele>
        <time>2021-10-22T16:06:59Z</time>
      </trkpt>
      <trkpt lat="49.42577" lon="1.02971">
        <ele>6</ele>
        <time>2021-10-22T16:07:00Z</time>
      </trkpt>
      <trkpt lat="49.42584" lon="1.02976">
        <ele>6</ele>
        <time>2021-10-22T16:07:01Z</time>
      </trkpt>
      <trkpt lat="49.42596" lon="1.02988">
        <ele>6.1</ele>
        <time>2021-10-22T16:07:04Z</time>
      </trkpt>
      <trkpt lat="49.42608" lon="1.03">
        <ele>6.1</ele>
        <time>2021-10-22T16:07:05Z</time>
      </trkpt>
      <trkpt lat="49.42621" lon="1.03013">
        <ele>6</ele>
        <time>2021-10-22T16:07:07Z</time>
      </trkpt>
      <trkpt lat="49.42627" lon="1.03019">
        <ele>6</ele>
        <time>2021-10-22T16:07:09Z</time>
      </trkpt>
      <trkpt lat="49.4264" lon="1.03032">
        <ele>5.9</ele>
        <time>2021-10-22T16:07:10Z</time>
      </trkpt>
      <trkpt lat="49.42652" lon="1.03045">
        <ele>5.7</ele>
        <time>2021-10-22T16:07:12Z</time>
      </trkpt>
      <trkpt lat="49.42659" lon="1.03052">
        <ele>5.7</ele>
        <time>2021-10-22T16:07:13Z</time>
      </trkpt>
      <trkpt lat="49.42672" lon="1.03066">
        <ele>5.6</ele>
        <time>2021-10-22T16:07:15Z</time>
      </trkpt>
      <trkpt lat="49.42678" lon="1.03073">
        <ele>5.5</ele>
        <time>2021-10-22T16:07:17Z</time>
      </trkpt>
      <trkpt lat="49.42692" lon="1.03087">
        <ele>5.4</ele>
        <time>2021-10-22T16:07:18Z</time>
      </trkpt>
      <trkpt lat="49.42698" lon="1.03094">
        <ele>5.4</ele>
        <time>2021-10-22T16:07:19Z</time>
      </trkpt>
      <trkpt lat="49.42705" lon="1.03101">
        <ele>5.4</ele>
        <time>2021-10-22T16:07:20Z</time>
      </trkpt>
      <trkpt lat="49.42717" lon="1.03114">
        <ele>5.5</ele>
        <time>2021-10-22T16:07:22Z</time>
      </trkpt>
      <trkpt lat="49.42723" lon="1.03121">
        <ele>5.5</ele>
        <time>2021-10-22T16:07:23Z</time>
      </trkpt>
      <trkpt lat="49.42729" lon="1.03129">
        <ele>5.5</ele>
        <time>2021-10-22T16:07:24Z</time>
      </trkpt>
      <trkpt lat="49.42741" lon="1.03144">
        <ele>5.5</ele>
        <time>2021-10-22T16:07:26Z</time>
      </trkpt>
      <trkpt lat="49.42747" lon="1.03151">
        <ele>5.5</ele>
        <time>2021-10-22T16:07:27Z</time>
      </trkpt>
      <trkpt lat="49.42753" lon="1.03159">
        <ele>5.6</ele>
        <time>2021-10-22T16:07:28Z</time>
      </trkpt>
      <trkpt lat="49.42768" lon="1.03172">
        <ele>5.5</ele>
        <time>2021-10-22T16:07:30Z</time>
      </trkpt>
      <trkpt lat="49.42782" lon="1.03186">
        <ele>5.5</ele>
        <time>2021-10-22T16:07:32Z</time>
      </trkpt>
      <trkpt lat="49.42789" lon="1.03193">
        <ele>5.5</ele>
        <time>2021-10-22T16:07:33Z</time>
      </trkpt>
      <trkpt lat="49.42801" lon="1.03207">
        <ele>5.5</ele>
        <time>2021-10-22T16:07:35Z</time>
      </trkpt>
      <trkpt lat="49.42812" lon="1.03222">
        <ele>5.6</ele>
        <time>2021-10-22T16:07:37Z</time>
      </trkpt>
      <trkpt lat="49.4283" lon="1.03241">
        <ele>5.7</ele>
        <time>2021-10-22T16:07:40Z</time>
      </trkpt>
      <trkpt lat="49.42836" lon="1.03248">
        <ele>5.7</ele>
        <time>2021-10-22T16:07:41Z</time>
      </trkpt>
      <trkpt lat="49.42843" lon="1.03255">
        <ele>5.7</ele>
        <time>2021-10-22T16:07:42Z</time>
      </trkpt>
      <trkpt lat="49.42856" lon="1.03268">
        <ele>5.6</ele>
        <time>2021-10-22T16:07:44Z</time>
      </trkpt>
      <trkpt lat="49.42862" lon="1.03275">
        <ele>5.6</ele>
        <time>2021-10-22T16:07:45Z</time>
      </trkpt>
      <trkpt lat="49.42868" lon="1.03282">
        <ele>5.6</ele>
        <time>2021-10-22T16:07:46Z</time>
      </trkpt>
      <trkpt lat="49.42873" lon="1.03289">
        <ele>5.6</ele>
        <time>2021-10-22T16:07:47Z</time>
      </trkpt>
      <trkpt lat="49.42885" lon="1.03305">
        <ele>5.7</ele>
        <time>2021-10-22T16:07:50Z</time>
      </trkpt>
      <trkpt lat="49.42896" lon="1.03321">
        <ele>5.8</ele>
        <time>2021-10-22T16:07:51Z</time>
      </trkpt>
      <trkpt lat="49.42902" lon="1.0333">
        <ele>5.9</ele>
        <time>2021-10-22T16:07:52Z</time>
      </trkpt>
      <trkpt lat="49.42914" lon="1.03345">
        <ele>6</ele>
        <time>2021-10-22T16:07:55Z</time>
      </trkpt>
      <trkpt lat="49.42924" lon="1.0336">
        <ele>6.1</ele>
        <time>2021-10-22T16:07:57Z</time>
      </trkpt>
      <trkpt lat="49.42934" lon="1.03377">
        <ele>6.2</ele>
        <time>2021-10-22T16:07:58Z</time>
      </trkpt>
      <trkpt lat="49.42939" lon="1.03385">
        <ele>6.2</ele>
        <time>2021-10-22T16:07:59Z</time>
      </trkpt>
      <trkpt lat="49.42944" lon="1.03393">
        <ele>6.2</ele>
        <time>2021-10-22T16:08:00Z</time>
      </trkpt>
      <trkpt lat="49.42951" lon="1.03413">
        <ele>6.2</ele>
        <time>2021-10-22T16:08:02Z</time>
      </trkpt>
      <trkpt lat="49.42957" lon="1.03432">
        <ele>6.2</ele>
        <time>2021-10-22T16:08:04Z</time>
      </trkpt>
      <trkpt lat="49.42963" lon="1.03453">
        <ele>6.2</ele>
        <time>2021-10-22T16:08:06Z</time>
      </trkpt>
      <trkpt lat="49.42967" lon="1.03462">
        <ele>6.2</ele>
        <time>2021-10-22T16:08:07Z</time>
      </trkpt>
      <trkpt lat="49.42972" lon="1.0347">
        <ele>6.2</ele>
        <time>2021-10-22T16:08:09Z</time>
      </trkpt>
      <trkpt lat="49.42987" lon="1.03477">
        <ele>6.2</ele>
        <time>2021-10-22T16:08:10Z</time>
      </trkpt>
      <trkpt lat="49.43" lon="1.03483">
        <ele>6.3</ele>
        <time>2021-10-22T16:08:12Z</time>
      </trkpt>
      <trkpt lat="49.43006" lon="1.03486">
        <ele>6.3</ele>
        <time>2021-10-22T16:08:13Z</time>
      </trkpt>
      <trkpt lat="49.43014" lon="1.03501">
        <ele>6.4</ele>
        <time>2021-10-22T16:08:15Z</time>
      </trkpt>
      <trkpt lat="49.43024" lon="1.03516">
        <ele>6.4</ele>
        <time>2021-10-22T16:08:17Z</time>
      </trkpt>
      <trkpt lat="49.43034" lon="1.03529">
        <ele>6.4</ele>
        <time>2021-10-22T16:08:19Z</time>
      </trkpt>
      <trkpt lat="49.43039" lon="1.03535">
        <ele>6.5</ele>
        <time>2021-10-22T16:08:20Z</time>
      </trkpt>
      <trkpt lat="49.4305" lon="1.0355">
        <ele>6.4</ele>
        <time>2021-10-22T16:08:23Z</time>
      </trkpt>
      <trkpt lat="49.43061" lon="1.03564">
        <ele>6.4</ele>
        <time>2021-10-22T16:08:24Z</time>
      </trkpt>
      <trkpt lat="49.43066" lon="1.03573">
        <ele>6.4</ele>
        <time>2021-10-22T16:08:25Z</time>
      </trkpt>
      <trkpt lat="49.43078" lon="1.03586">
        <ele>6.5</ele>
        <time>2021-10-22T16:08:27Z</time>
      </trkpt>
      <trkpt lat="49.43084" lon="1.03593">
        <ele>6.5</ele>
        <time>2021-10-22T16:08:28Z</time>
      </trkpt>
      <trkpt lat="49.43094" lon="1.03609">
        <ele>6.6</ele>
        <time>2021-10-22T16:08:30Z</time>
      </trkpt>
      <trkpt lat="49.431" lon="1.03617">
        <ele>6.7</ele>
        <time>2021-10-22T16:08:31Z</time>
      </trkpt>
      <trkpt lat="49.4311" lon="1.03633">
        <ele>6.7</ele>
        <time>2021-10-22T16:08:33Z</time>
      </trkpt>
      <trkpt lat="49.43115" lon="1.03642">
        <ele>6.7</ele>
        <time>2021-10-22T16:08:34Z</time>
      </trkpt>
      <trkpt lat="49.43121" lon="1.03651">
        <ele>6.6</ele>
        <time>2021-10-22T16:08:36Z</time>
      </trkpt>
      <trkpt lat="49.43132" lon="1.03667">
        <ele>6.6</ele>
        <time>2021-10-22T16:08:38Z</time>
      </trkpt>
      <trkpt lat="49.43142" lon="1.03684">
        <ele>6.5</ele>
        <time>2021-10-22T16:08:39Z</time>
      </trkpt>
      <trkpt lat="49.43152" lon="1.03702">
        <ele>6.5</ele>
        <time>2021-10-22T16:08:41Z</time>
      </trkpt>
      <trkpt lat="49.43161" lon="1.03718">
        <ele>6.6</ele>
        <time>2021-10-22T16:08:43Z</time>
      </trkpt>
      <trkpt lat="49.43171" lon="1.03736">
        <ele>6.7</ele>
        <time>2021-10-22T16:08:45Z</time>
      </trkpt>
      <trkpt lat="49.43175" lon="1.03745">
        <ele>6.7</ele>
        <time>2021-10-22T16:08:46Z</time>
      </trkpt>
      <trkpt lat="49.43179" lon="1.03754">
        <ele>6.7</ele>
        <time>2021-10-22T16:08:47Z</time>
      </trkpt>
      <trkpt lat="49.43189" lon="1.03771">
        <ele>6.7</ele>
        <time>2021-10-22T16:08:49Z</time>
      </trkpt>
      <trkpt lat="49.43198" lon="1.03789">
        <ele>6.7</ele>
        <time>2021-10-22T16:08:51Z</time>
      </trkpt>
      <trkpt lat="49.43203" lon="1.03799">
        <ele>6.6</ele>
        <time>2021-10-22T16:08:52Z</time>
      </trkpt>
      <trkpt lat="49.43208" lon="1.03808">
        <ele>6.5</ele>
        <time>2021-10-22T16:08:53Z</time>
      </trkpt>
      <trkpt lat="49.43213" lon="1.03818">
        <ele>6.5</ele>
        <time>2021-10-22T16:08:54Z</time>
      </trkpt>
      <trkpt lat="49.43221" lon="1.03837">
        <ele>6.5</ele>
        <time>2021-10-22T16:08:56Z</time>
      </trkpt>
      <trkpt lat="49.43229" lon="1.03857">
        <ele>6.6</ele>
        <time>2021-10-22T16:08:58Z</time>
      </trkpt>
      <trkpt lat="49.43236" lon="1.03878">
        <ele>6.7</ele>
        <time>2021-10-22T16:09:01Z</time>
      </trkpt>
      <trkpt lat="49.43243" lon="1.03899">
        <ele>6.8</ele>
        <time>2021-10-22T16:09:02Z</time>
      </trkpt>
      <trkpt lat="49.4325" lon="1.03919">
        <ele>6.8</ele>
        <time>2021-10-22T16:09:04Z</time>
      </trkpt>
      <trkpt lat="49.43253" lon="1.03929">
        <ele>6.9</ele>
        <time>2021-10-22T16:09:05Z</time>
      </trkpt>
      <trkpt lat="49.43259" lon="1.0395">
        <ele>6.9</ele>
        <time>2021-10-22T16:09:08Z</time>
      </trkpt>
      <trkpt lat="49.43265" lon="1.03971">
        <ele>6.9</ele>
        <time>2021-10-22T16:09:09Z</time>
      </trkpt>
      <trkpt lat="49.43268" lon="1.03982">
        <ele>6.9</ele>
        <time>2021-10-22T16:09:10Z</time>
      </trkpt>
      <trkpt lat="49.43271" lon="1.03993">
        <ele>6.9</ele>
        <time>2021-10-22T16:09:11Z</time>
      </trkpt>
      <trkpt lat="49.43275" lon="1.04003">
        <ele>6.9</ele>
        <time>2021-10-22T16:09:12Z</time>
      </trkpt>
      <trkpt lat="49.43279" lon="1.04024">
        <ele>6.9</ele>
        <time>2021-10-22T16:09:14Z</time>
      </trkpt>
      <trkpt lat="49.43282" lon="1.04035">
        <ele>6.9</ele>
        <time>2021-10-22T16:09:15Z</time>
      </trkpt>
      <trkpt lat="49.43287" lon="1.04055">
        <ele>6.9</ele>
        <time>2021-10-22T16:09:17Z</time>
      </trkpt>
      <trkpt lat="49.4329" lon="1.04066">
        <ele>6.9</ele>
        <time>2021-10-22T16:09:19Z</time>
      </trkpt>
      <trkpt lat="49.43295" lon="1.04086">
        <ele>6.9</ele>
        <time>2021-10-22T16:09:20Z</time>
      </trkpt>
      <trkpt lat="49.433" lon="1.04107">
        <ele>6.9</ele>
        <time>2021-10-22T16:09:22Z</time>
      </trkpt>
      <trkpt lat="49.43305" lon="1.04128">
        <ele>6.9</ele>
        <time>2021-10-22T16:09:24Z</time>
      </trkpt>
      <trkpt lat="49.43308" lon="1.04139">
        <ele>6.9</ele>
        <time>2021-10-22T16:09:25Z</time>
      </trkpt>
      <trkpt lat="49.43313" lon="1.04161">
        <ele>6.9</ele>
        <time>2021-10-22T16:09:27Z</time>
      </trkpt>
      <trkpt lat="49.43319" lon="1.04181">
        <ele>6.9</ele>
        <time>2021-10-22T16:09:29Z</time>
      </trkpt>
      <trkpt lat="49.43322" lon="1.0419">
        <ele>6.9</ele>
        <time>2021-10-22T16:09:30Z</time>
      </trkpt>
      <trkpt lat="49.43327" lon="1.0421">
        <ele>6.9</ele>
        <time>2021-10-22T16:09:32Z</time>
      </trkpt>
      <trkpt lat="49.4333" lon="1.0422">
        <ele>6.9</ele>
        <time>2021-10-22T16:09:33Z</time>
      </trkpt>
      <trkpt lat="49.43335" lon="1.0424">
        <ele>6.9</ele>
        <time>2021-10-22T16:09:35Z</time>
      </trkpt>
      <trkpt lat="49.4334" lon="1.0426">
        <ele>6.9</ele>
        <time>2021-10-22T16:09:37Z</time>
      </trkpt>
      <trkpt lat="49.43342" lon="1.0427">
        <ele>7</ele>
        <time>2021-10-22T16:09:38Z</time>
      </trkpt>
      <trkpt lat="49.43345" lon="1.0428">
        <ele>7</ele>
        <time>2021-10-22T16:09:39Z</time>
      </trkpt>
      <trkpt lat="49.43351" lon="1.04301">
        <ele>7</ele>
        <time>2021-10-22T16:09:41Z</time>
      </trkpt>
      <trkpt lat="49.43357" lon="1.04324">
        <ele>7</ele>
        <time>2021-10-22T16:09:43Z</time>
      </trkpt>
      <trkpt lat="49.43362" lon="1.04346">
        <ele>7</ele>
        <time>2021-10-22T16:09:45Z</time>
      </trkpt>
      <trkpt lat="49.43364" lon="1.04359">
        <ele>7</ele>
        <time>2021-10-22T16:09:46Z</time>
      </trkpt>
      <trkpt lat="49.43368" lon="1.04381">
        <ele>7</ele>
        <time>2021-10-22T16:09:48Z</time>
      </trkpt>
      <trkpt lat="49.43373" lon="1.04402">
        <ele>7</ele>
        <time>2021-10-22T16:09:50Z</time>
      </trkpt>
      <trkpt lat="49.43374" lon="1.04413">
        <ele>6.9</ele>
        <time>2021-10-22T16:09:51Z</time>
      </trkpt>
      <trkpt lat="49.43379" lon="1.0443">
        <ele>6.8</ele>
        <time>2021-10-22T16:09:53Z</time>
      </trkpt>
      <trkpt lat="49.43384" lon="1.04451">
        <ele>6.7</ele>
        <time>2021-10-22T16:09:55Z</time>
      </trkpt>
      <trkpt lat="49.43386" lon="1.04463">
        <ele>6.6</ele>
        <time>2021-10-22T16:09:56Z</time>
      </trkpt>
      <trkpt lat="49.43389" lon="1.04474">
        <ele>6.6</ele>
        <time>2021-10-22T16:09:57Z</time>
      </trkpt>
      <trkpt lat="49.43397" lon="1.04494">
        <ele>6.5</ele>
        <time>2021-10-22T16:09:59Z</time>
      </trkpt>
      <trkpt lat="49.43401" lon="1.04505">
        <ele>6.5</ele>
        <time>2021-10-22T16:10:00Z</time>
      </trkpt>
      <trkpt lat="49.43405" lon="1.04517">
        <ele>6.5</ele>
        <time>2021-10-22T16:10:01Z</time>
      </trkpt>
      <trkpt lat="49.43412" lon="1.04538">
        <ele>6.6</ele>
        <time>2021-10-22T16:10:03Z</time>
      </trkpt>
      <trkpt lat="49.43414" lon="1.04549">
        <ele>6.6</ele>
        <time>2021-10-22T16:10:04Z</time>
      </trkpt>
      <trkpt lat="49.43418" lon="1.04561">
        <ele>6.6</ele>
        <time>2021-10-22T16:10:05Z</time>
      </trkpt>
      <trkpt lat="49.43424" lon="1.04584">
        <ele>6.6</ele>
        <time>2021-10-22T16:10:07Z</time>
      </trkpt>
      <trkpt lat="49.43427" lon="1.04596">
        <ele>6.6</ele>
        <time>2021-10-22T16:10:08Z</time>
      </trkpt>
      <trkpt lat="49.4343" lon="1.04608">
        <ele>6.6</ele>
        <time>2021-10-22T16:10:09Z</time>
      </trkpt>
      <trkpt lat="49.43436" lon="1.04631">
        <ele>6.6</ele>
        <time>2021-10-22T16:10:11Z</time>
      </trkpt>
      <trkpt lat="49.43438" lon="1.04643">
        <ele>6.6</ele>
        <time>2021-10-22T16:10:12Z</time>
      </trkpt>
      <trkpt lat="49.43441" lon="1.04654">
        <ele>6.6</ele>
        <time>2021-10-22T16:10:13Z</time>
      </trkpt>
      <trkpt lat="49.43444" lon="1.04679">
        <ele>6.7</ele>
        <time>2021-10-22T16:10:15Z</time>
      </trkpt>
      <trkpt lat="49.43447" lon="1.0469">
        <ele>6.8</ele>
        <time>2021-10-22T16:10:16Z</time>
      </trkpt>
      <trkpt lat="49.43451" lon="1.04713">
        <ele>6.8</ele>
        <time>2021-10-22T16:10:18Z</time>
      </trkpt>
      <trkpt lat="49.43454" lon="1.04724">
        <ele>6.8</ele>
        <time>2021-10-22T16:10:19Z</time>
      </trkpt>
      <trkpt lat="49.43458" lon="1.04735">
        <ele>6.8</ele>
        <time>2021-10-22T16:10:20Z</time>
      </trkpt>
      <trkpt lat="49.43466" lon="1.04757">
        <ele>6.8</ele>
        <time>2021-10-22T16:10:22Z</time>
      </trkpt>
      <trkpt lat="49.43469" lon="1.04767">
        <ele>6.7</ele>
        <time>2021-10-22T16:10:23Z</time>
      </trkpt>
      <trkpt lat="49.43476" lon="1.04789">
        <ele>6.8</ele>
        <time>2021-10-22T16:10:25Z</time>
      </trkpt>
      <trkpt lat="49.43478" lon="1.04801">
        <ele>6.8</ele>
        <time>2021-10-22T16:10:27Z</time>
      </trkpt>
      <trkpt lat="49.43483" lon="1.04821">
        <ele>6.8</ele>
        <time>2021-10-22T16:10:28Z</time>
      </trkpt>
      <trkpt lat="49.43486" lon="1.04831">
        <ele>6.8</ele>
        <time>2021-10-22T16:10:29Z</time>
      </trkpt>
      <trkpt lat="49.43492" lon="1.04851">
        <ele>6.8</ele>
        <time>2021-10-22T16:10:31Z</time>
      </trkpt>
      <trkpt lat="49.435" lon="1.04874">
        <ele>6.8</ele>
        <time>2021-10-22T16:10:33Z</time>
      </trkpt>
      <trkpt lat="49.43504" lon="1.04884">
        <ele>6.8</ele>
        <time>2021-10-22T16:10:34Z</time>
      </trkpt>
      <trkpt lat="49.43508" lon="1.04895">
        <ele>6.8</ele>
        <time>2021-10-22T16:10:35Z</time>
      </trkpt>
      <trkpt lat="49.43518" lon="1.04915">
        <ele>6.7</ele>
        <time>2021-10-22T16:10:37Z</time>
      </trkpt>
      <trkpt lat="49.43523" lon="1.04925">
        <ele>6.7</ele>
        <time>2021-10-22T16:10:38Z</time>
      </trkpt>
      <trkpt lat="49.43534" lon="1.0494">
        <ele>6.6</ele>
        <time>2021-10-22T16:10:40Z</time>
      </trkpt>
      <trkpt lat="49.4354" lon="1.04949">
        <ele>6.6</ele>
        <time>2021-10-22T16:10:41Z</time>
      </trkpt>
      <trkpt lat="49.43552" lon="1.04962">
        <ele>6.6</ele>
        <time>2021-10-22T16:10:44Z</time>
      </trkpt>
      <trkpt lat="49.43566" lon="1.04974">
        <ele>6.6</ele>
        <time>2021-10-22T16:10:45Z</time>
      </trkpt>
      <trkpt lat="49.43572" lon="1.04979">
        <ele>6.7</ele>
        <time>2021-10-22T16:10:46Z</time>
      </trkpt>
      <trkpt lat="49.43578" lon="1.04985">
        <ele>6.7</ele>
        <time>2021-10-22T16:10:47Z</time>
      </trkpt>
      <trkpt lat="49.43589" lon="1.04996">
        <ele>6.7</ele>
        <time>2021-10-22T16:10:50Z</time>
      </trkpt>
      <trkpt lat="49.436" lon="1.05009">
        <ele>6.7</ele>
        <time>2021-10-22T16:10:51Z</time>
      </trkpt>
      <trkpt lat="49.43611" lon="1.05021">
        <ele>6.7</ele>
        <time>2021-10-22T16:10:53Z</time>
      </trkpt>
      <trkpt lat="49.43621" lon="1.05035">
        <ele>6.8</ele>
        <time>2021-10-22T16:10:55Z</time>
      </trkpt>
      <trkpt lat="49.43627" lon="1.05043">
        <ele>6.9</ele>
        <time>2021-10-22T16:10:56Z</time>
      </trkpt>
      <trkpt lat="49.43632" lon="1.05051">
        <ele>7</ele>
        <time>2021-10-22T16:10:57Z</time>
      </trkpt>
      <trkpt lat="49.43637" lon="1.05058">
        <ele>7</ele>
        <time>2021-10-22T16:10:59Z</time>
      </trkpt>
      <trkpt lat="49.43643" lon="1.05078">
        <ele>7.3</ele>
        <time>2021-10-22T16:11:00Z</time>
      </trkpt>
      <trkpt lat="49.4365" lon="1.051">
        <ele>7.3</ele>
        <time>2021-10-22T16:11:02Z</time>
      </trkpt>
      <trkpt lat="49.43663" lon="1.05112">
        <ele>7.2</ele>
        <time>2021-10-22T16:11:04Z</time>
      </trkpt>
      <trkpt lat="49.43671" lon="1.05113">
        <ele>7.2</ele>
        <time>2021-10-22T16:11:05Z</time>
      </trkpt>
      <trkpt lat="49.43678" lon="1.05115">
        <ele>7.2</ele>
        <time>2021-10-22T16:11:06Z</time>
      </trkpt>
      <trkpt lat="49.43692" lon="1.05128">
        <ele>7.2</ele>
        <time>2021-10-22T16:11:08Z</time>
      </trkpt>
      <trkpt lat="49.43697" lon="1.05136">
        <ele>7.2</ele>
        <time>2021-10-22T16:11:09Z</time>
      </trkpt>
      <trkpt lat="49.43707" lon="1.05154">
        <ele>7.2</ele>
        <time>2021-10-22T16:11:11Z</time>
      </trkpt>
      <trkpt lat="49.43716" lon="1.05174">
        <ele>7.2</ele>
        <time>2021-10-22T16:11:13Z</time>
      </trkpt>
      <trkpt lat="49.43719" lon="1.05184">
        <ele>7.1</ele>
        <time>2021-10-22T16:11:14Z</time>
      </trkpt>
      <trkpt lat="49.43722" lon="1.05195">
        <ele>7.1</ele>
        <time>2021-10-22T16:11:15Z</time>
      </trkpt>
      <trkpt lat="49.43728" lon="1.05219">
        <ele>7</ele>
        <time>2021-10-22T16:11:17Z</time>
      </trkpt>
      <trkpt lat="49.43732" lon="1.05253">
        <ele>7.1</ele>
        <time>2021-10-22T16:11:20Z</time>
      </trkpt>
      <trkpt lat="49.43733" lon="1.05276">
        <ele>7.1</ele>
        <time>2021-10-22T16:11:22Z</time>
      </trkpt>
      <trkpt lat="49.43733" lon="1.05288">
        <ele>7.1</ele>
        <time>2021-10-22T16:11:23Z</time>
      </trkpt>
      <trkpt lat="49.43734" lon="1.05301">
        <ele>7.1</ele>
        <time>2021-10-22T16:11:25Z</time>
      </trkpt>
      <trkpt lat="49.43734" lon="1.05325">
        <ele>7.1</ele>
        <time>2021-10-22T16:11:26Z</time>
      </trkpt>
      <trkpt lat="49.43734" lon="1.05347">
        <ele>7.2</ele>
        <time>2021-10-22T16:11:28Z</time>
      </trkpt>
      <trkpt lat="49.43734" lon="1.05368">
        <ele>7.3</ele>
        <time>2021-10-22T16:11:30Z</time>
      </trkpt>
      <trkpt lat="49.43734" lon="1.05379">
        <ele>7.3</ele>
        <time>2021-10-22T16:11:31Z</time>
      </trkpt>
      <trkpt lat="49.43734" lon="1.05391">
        <ele>7.3</ele>
        <time>2021-10-22T16:11:33Z</time>
      </trkpt>
      <trkpt lat="49.43733" lon="1.05413">
        <ele>7.3</ele>
        <time>2021-10-22T16:11:34Z</time>
      </trkpt>
      <trkpt lat="49.43733" lon="1.05433">
        <ele>7.2</ele>
        <time>2021-10-22T16:11:36Z</time>
      </trkpt>
      <trkpt lat="49.43732" lon="1.05456">
        <ele>7.2</ele>
        <time>2021-10-22T16:11:38Z</time>
      </trkpt>
      <trkpt lat="49.43731" lon="1.05476">
        <ele>7.2</ele>
        <time>2021-10-22T16:11:41Z</time>
      </trkpt>
      <trkpt lat="49.43731" lon="1.055">
        <ele>7.2</ele>
        <time>2021-10-22T16:11:42Z</time>
      </trkpt>
      <trkpt lat="49.4373" lon="1.05522">
        <ele>7.2</ele>
        <time>2021-10-22T16:11:44Z</time>
      </trkpt>
      <trkpt lat="49.43729" lon="1.05533">
        <ele>7.2</ele>
        <time>2021-10-22T16:11:45Z</time>
      </trkpt>
      <trkpt lat="49.43729" lon="1.0556">
        <ele>7.2</ele>
        <time>2021-10-22T16:11:47Z</time>
      </trkpt>
      <trkpt lat="49.43728" lon="1.05584">
        <ele>7.2</ele>
        <time>2021-10-22T16:11:49Z</time>
      </trkpt>
      <trkpt lat="49.43727" lon="1.05597">
        <ele>7.2</ele>
        <time>2021-10-22T16:11:50Z</time>
      </trkpt>
      <trkpt lat="49.43727" lon="1.05621">
        <ele>7.2</ele>
        <time>2021-10-22T16:11:52Z</time>
      </trkpt>
      <trkpt lat="49.43727" lon="1.05645">
        <ele>7.1</ele>
        <time>2021-10-22T16:11:55Z</time>
      </trkpt>
      <trkpt lat="49.43727" lon="1.05668">
        <ele>7.2</ele>
        <time>2021-10-22T16:11:56Z</time>
      </trkpt>
      <trkpt lat="49.43728" lon="1.05691">
        <ele>7.2</ele>
        <time>2021-10-22T16:11:58Z</time>
      </trkpt>
      <trkpt lat="49.43728" lon="1.05702">
        <ele>7.2</ele>
        <time>2021-10-22T16:12:00Z</time>
      </trkpt>
      <trkpt lat="49.43732" lon="1.05727">
        <ele>7.2</ele>
        <time>2021-10-22T16:12:01Z</time>
      </trkpt>
      <trkpt lat="49.43733" lon="1.05738">
        <ele>7.3</ele>
        <time>2021-10-22T16:12:02Z</time>
      </trkpt>
      <trkpt lat="49.43736" lon="1.05749">
        <ele>7.3</ele>
        <time>2021-10-22T16:12:03Z</time>
      </trkpt>
      <trkpt lat="49.43741" lon="1.05772">
        <ele>7.2</ele>
        <time>2021-10-22T16:12:05Z</time>
      </trkpt>
      <trkpt lat="49.43744" lon="1.05783">
        <ele>7.2</ele>
        <time>2021-10-22T16:12:06Z</time>
      </trkpt>
      <trkpt lat="49.43746" lon="1.05792">
        <ele>7.2</ele>
        <time>2021-10-22T16:12:08Z</time>
      </trkpt>
      <trkpt lat="49.43749" lon="1.05802">
        <ele>7.2</ele>
        <time>2021-10-22T16:12:09Z</time>
      </trkpt>
      <trkpt lat="49.43757" lon="1.05823">
        <ele>7.1</ele>
        <time>2021-10-22T16:12:10Z</time>
      </trkpt>
      <trkpt lat="49.43761" lon="1.05834">
        <ele>7.1</ele>
        <time>2021-10-22T16:12:11Z</time>
      </trkpt>
      <trkpt lat="49.43765" lon="1.05845">
        <ele>7.1</ele>
        <time>2021-10-22T16:12:12Z</time>
      </trkpt>
      <trkpt lat="49.43769" lon="1.05856">
        <ele>7.1</ele>
        <time>2021-10-22T16:12:14Z</time>
      </trkpt>
      <trkpt lat="49.43777" lon="1.05878">
        <ele>7</ele>
        <time>2021-10-22T16:12:15Z</time>
      </trkpt>
      <trkpt lat="49.43781" lon="1.05888">
        <ele>7</ele>
        <time>2021-10-22T16:12:16Z</time>
      </trkpt>
      <trkpt lat="49.43785" lon="1.05899">
        <ele>7</ele>
        <time>2021-10-22T16:12:18Z</time>
      </trkpt>
      <trkpt lat="49.43792" lon="1.05919">
        <ele>6.9</ele>
        <time>2021-10-22T16:12:19Z</time>
      </trkpt>
      <trkpt lat="49.43797" lon="1.0593">
        <ele>6.9</ele>
        <time>2021-10-22T16:12:20Z</time>
      </trkpt>
      <trkpt lat="49.438" lon="1.05941">
        <ele>6.9</ele>
        <time>2021-10-22T16:12:21Z</time>
      </trkpt>
      <trkpt lat="49.43804" lon="1.05951">
        <ele>6.9</ele>
        <time>2021-10-22T16:12:22Z</time>
      </trkpt>
      <trkpt lat="49.43813" lon="1.05971">
        <ele>6.9</ele>
        <time>2021-10-22T16:12:24Z</time>
      </trkpt>
      <trkpt lat="49.43817" lon="1.05981">
        <ele>6.9</ele>
        <time>2021-10-22T16:12:25Z</time>
      </trkpt>
      <trkpt lat="49.43825" lon="1.06002">
        <ele>6.8</ele>
        <time>2021-10-22T16:12:27Z</time>
      </trkpt>
      <trkpt lat="49.43829" lon="1.06012">
        <ele>6.8</ele>
        <time>2021-10-22T16:12:29Z</time>
      </trkpt>
      <trkpt lat="49.43836" lon="1.06031">
        <ele>6.8</ele>
        <time>2021-10-22T16:12:30Z</time>
      </trkpt>
      <trkpt lat="49.4384" lon="1.06041">
        <ele>6.8</ele>
        <time>2021-10-22T16:12:31Z</time>
      </trkpt>
      <trkpt lat="49.43844" lon="1.06051">
        <ele>6.8</ele>
        <time>2021-10-22T16:12:32Z</time>
      </trkpt>
      <trkpt lat="49.43848" lon="1.0606">
        <ele>6.8</ele>
        <time>2021-10-22T16:12:33Z</time>
      </trkpt>
      <trkpt lat="49.43856" lon="1.06081">
        <ele>6.8</ele>
        <time>2021-10-22T16:12:35Z</time>
      </trkpt>
      <trkpt lat="49.43859" lon="1.06091">
        <ele>6.8</ele>
        <time>2021-10-22T16:12:36Z</time>
      </trkpt>
      <trkpt lat="49.43863" lon="1.061">
        <ele>6.8</ele>
        <time>2021-10-22T16:12:37Z</time>
      </trkpt>
      <trkpt lat="49.4387" lon="1.06119">
        <ele>6.7</ele>
        <time>2021-10-22T16:12:39Z</time>
      </trkpt>
      <trkpt lat="49.43878" lon="1.06139">
        <ele>6.7</ele>
        <time>2021-10-22T16:12:41Z</time>
      </trkpt>
      <trkpt lat="49.43882" lon="1.06149">
        <ele>6.7</ele>
        <time>2021-10-22T16:12:42Z</time>
      </trkpt>
      <trkpt lat="49.43885" lon="1.06161">
        <ele>6.7</ele>
        <time>2021-10-22T16:12:43Z</time>
      </trkpt>
      <trkpt lat="49.43892" lon="1.06182">
        <ele>6.6</ele>
        <time>2021-10-22T16:12:45Z</time>
      </trkpt>
      <trkpt lat="49.43896" lon="1.06193">
        <ele>6.6</ele>
        <time>2021-10-22T16:12:46Z</time>
      </trkpt>
      <trkpt lat="49.43899" lon="1.06204">
        <ele>6.6</ele>
        <time>2021-10-22T16:12:47Z</time>
      </trkpt>
      <trkpt lat="49.43907" lon="1.06224">
        <ele>6.5</ele>
        <time>2021-10-22T16:12:49Z</time>
      </trkpt>
      <trkpt lat="49.43915" lon="1.06244">
        <ele>6.5</ele>
        <time>2021-10-22T16:12:51Z</time>
      </trkpt>
      <trkpt lat="49.43919" lon="1.06254">
        <ele>6.5</ele>
        <time>2021-10-22T16:12:52Z</time>
      </trkpt>
      <trkpt lat="49.43926" lon="1.06275">
        <ele>6.5</ele>
        <time>2021-10-22T16:12:55Z</time>
      </trkpt>
      <trkpt lat="49.43934" lon="1.06296">
        <ele>6.5</ele>
        <time>2021-10-22T16:12:56Z</time>
      </trkpt>
      <trkpt lat="49.43938" lon="1.06306">
        <ele>6.4</ele>
        <time>2021-10-22T16:12:57Z</time>
      </trkpt>
      <trkpt lat="49.43946" lon="1.06327">
        <ele>6.4</ele>
        <time>2021-10-22T16:12:59Z</time>
      </trkpt>
      <trkpt lat="49.43949" lon="1.06338">
        <ele>6.4</ele>
        <time>2021-10-22T16:13:00Z</time>
      </trkpt>
      <trkpt lat="49.43956" lon="1.06358">
        <ele>6.4</ele>
        <time>2021-10-22T16:13:03Z</time>
      </trkpt>
      <trkpt lat="49.43962" lon="1.06378">
        <ele>6.4</ele>
        <time>2021-10-22T16:13:04Z</time>
      </trkpt>
      <trkpt lat="49.43967" lon="1.06398">
        <ele>6.5</ele>
        <time>2021-10-22T16:13:06Z</time>
      </trkpt>
      <trkpt lat="49.43969" lon="1.06408">
        <ele>6.5</ele>
        <time>2021-10-22T16:13:07Z</time>
      </trkpt>
      <trkpt lat="49.43971" lon="1.06415">
        <ele>6.5</ele>
        <time>2021-10-22T16:13:08Z</time>
      </trkpt>
      <trkpt lat="49.43972" lon="1.06422">
        <ele>6.5</ele>
        <time>2021-10-22T16:13:09Z</time>
      </trkpt>
      <trkpt lat="49.43973" lon="1.06431">
        <ele>6.5</ele>
        <time>2021-10-22T16:13:10Z</time>
      </trkpt>
      <trkpt lat="49.43972" lon="1.06441">
        <ele>6.5</ele>
        <time>2021-10-22T16:13:12Z</time>
      </trkpt>
      <trkpt lat="49.43971" lon="1.06447">
        <ele>6.5</ele>
        <time>2021-10-22T16:13:13Z</time>
      </trkpt>
      <trkpt lat="49.4397" lon="1.06455">
        <ele>6.5</ele>
        <time>2021-10-22T16:13:14Z</time>
      </trkpt>
      <trkpt lat="49.43972" lon="1.06472">
        <ele>6.5</ele>
        <time>2021-10-22T16:13:16Z</time>
      </trkpt>
      <trkpt lat="49.43974" lon="1.06481">
        <ele>6.5</ele>
        <time>2021-10-22T16:13:17Z</time>
      </trkpt>
      <trkpt lat="49.43975" lon="1.065">
        <ele>6.5</ele>
        <time>2021-10-22T16:13:19Z</time>
      </trkpt>
      <trkpt lat="49.43975" lon="1.0652">
        <ele>6.4</ele>
        <time>2021-10-22T16:13:21Z</time>
      </trkpt>
      <trkpt lat="49.43975" lon="1.06532">
        <ele>6.4</ele>
        <time>2021-10-22T16:13:22Z</time>
      </trkpt>
      <trkpt lat="49.43975" lon="1.06554">
        <ele>6.3</ele>
        <time>2021-10-22T16:13:25Z</time>
      </trkpt>
      <trkpt lat="49.43974" lon="1.06574">
        <ele>6.3</ele>
        <time>2021-10-22T16:13:26Z</time>
      </trkpt>
      <trkpt lat="49.43974" lon="1.06585">
        <ele>6.3</ele>
        <time>2021-10-22T16:13:27Z</time>
      </trkpt>
      <trkpt lat="49.43973" lon="1.06608">
        <ele>6.2</ele>
        <time>2021-10-22T16:13:29Z</time>
      </trkpt>
      <trkpt lat="49.43972" lon="1.06632">
        <ele>6.2</ele>
        <time>2021-10-22T16:13:31Z</time>
      </trkpt>
      <trkpt lat="49.43971" lon="1.06643">
        <ele>6.2</ele>
        <time>2021-10-22T16:13:32Z</time>
      </trkpt>
      <trkpt lat="49.43972" lon="1.06655">
        <ele>6.2</ele>
        <time>2021-10-22T16:13:33Z</time>
      </trkpt>
      <trkpt lat="49.43972" lon="1.06667">
        <ele>6.2</ele>
        <time>2021-10-22T16:13:34Z</time>
      </trkpt>
      <trkpt lat="49.43972" lon="1.06691">
        <ele>6.2</ele>
        <time>2021-10-22T16:13:36Z</time>
      </trkpt>
      <trkpt lat="49.43972" lon="1.06703">
        <ele>6.3</ele>
        <time>2021-10-22T16:13:37Z</time>
      </trkpt>
      <trkpt lat="49.43971" lon="1.06727">
        <ele>6.2</ele>
        <time>2021-10-22T16:13:39Z</time>
      </trkpt>
      <trkpt lat="49.43971" lon="1.06739">
        <ele>6.2</ele>
        <time>2021-10-22T16:13:40Z</time>
      </trkpt>
      <trkpt lat="49.43971" lon="1.06751">
        <ele>6.2</ele>
        <time>2021-10-22T16:13:41Z</time>
      </trkpt>
      <trkpt lat="49.43971" lon="1.06763">
        <ele>6.2</ele>
        <time>2021-10-22T16:13:42Z</time>
      </trkpt>
      <trkpt lat="49.43972" lon="1.06775">
        <ele>6.1</ele>
        <time>2021-10-22T16:13:43Z</time>
      </trkpt>
      <trkpt lat="49.43972" lon="1.06788">
        <ele>6.1</ele>
        <time>2021-10-22T16:13:44Z</time>
      </trkpt>
      <trkpt lat="49.43972" lon="1.06813">
        <ele>5.9</ele>
        <time>2021-10-22T16:13:46Z</time>
      </trkpt>
      <trkpt lat="49.43973" lon="1.06838">
        <ele>5.8</ele>
        <time>2021-10-22T16:13:48Z</time>
      </trkpt>
      <trkpt lat="49.43972" lon="1.0685">
        <ele>5.7</ele>
        <time>2021-10-22T16:13:49Z</time>
      </trkpt>
      <trkpt lat="49.43972" lon="1.06862">
        <ele>5.7</ele>
        <time>2021-10-22T16:13:50Z</time>
      </trkpt>
      <trkpt lat="49.43971" lon="1.06887">
        <ele>5.8</ele>
        <time>2021-10-22T16:13:53Z</time>
      </trkpt>
      <trkpt lat="49.43972" lon="1.06924">
        <ele>5.9</ele>
        <time>2021-10-22T16:13:55Z</time>
      </trkpt>
      <trkpt lat="49.43971" lon="1.06935">
        <ele>5.9</ele>
        <time>2021-10-22T16:13:56Z</time>
      </trkpt>
      <trkpt lat="49.43971" lon="1.06958">
        <ele>5.9</ele>
        <time>2021-10-22T16:13:58Z</time>
      </trkpt>
      <trkpt lat="49.43971" lon="1.06971">
        <ele>5.9</ele>
        <time>2021-10-22T16:13:59Z</time>
      </trkpt>
      <trkpt lat="49.43972" lon="1.06983">
        <ele>5.9</ele>
        <time>2021-10-22T16:14:00Z</time>
      </trkpt>
      <trkpt lat="49.43972" lon="1.07007">
        <ele>5.9</ele>
        <time>2021-10-22T16:14:02Z</time>
      </trkpt>
      <trkpt lat="49.43971" lon="1.07019">
        <ele>6</ele>
        <time>2021-10-22T16:14:03Z</time>
      </trkpt>
      <trkpt lat="49.43972" lon="1.07042">
        <ele>6</ele>
        <time>2021-10-22T16:14:05Z</time>
      </trkpt>
      <trkpt lat="49.43973" lon="1.07053">
        <ele>6.1</ele>
        <time>2021-10-22T16:14:06Z</time>
      </trkpt>
      <trkpt lat="49.43974" lon="1.07077">
        <ele>6.1</ele>
        <time>2021-10-22T16:14:08Z</time>
      </trkpt>
      <trkpt lat="49.43974" lon="1.07099">
        <ele>6.2</ele>
        <time>2021-10-22T16:14:11Z</time>
      </trkpt>
      <trkpt lat="49.43974" lon="1.07119">
        <ele>6.3</ele>
        <time>2021-10-22T16:14:12Z</time>
      </trkpt>
      <trkpt lat="49.43975" lon="1.0713">
        <ele>6.3</ele>
        <time>2021-10-22T16:14:13Z</time>
      </trkpt>
      <trkpt lat="49.43976" lon="1.07153">
        <ele>6.4</ele>
        <time>2021-10-22T16:14:15Z</time>
      </trkpt>
      <trkpt lat="49.43976" lon="1.07177">
        <ele>6.4</ele>
        <time>2021-10-22T16:14:17Z</time>
      </trkpt>
      <trkpt lat="49.43976" lon="1.07186">
        <ele>6.4</ele>
        <time>2021-10-22T16:14:18Z</time>
      </trkpt>
      <trkpt lat="49.43973" lon="1.07195">
        <ele>6.4</ele>
        <time>2021-10-22T16:14:19Z</time>
      </trkpt>
      <trkpt lat="49.43972" lon="1.07217">
        <ele>6.4</ele>
        <time>2021-10-22T16:14:21Z</time>
      </trkpt>
      <trkpt lat="49.43972" lon="1.07241">
        <ele>6.4</ele>
        <time>2021-10-22T16:14:24Z</time>
      </trkpt>
      <trkpt lat="49.4397" lon="1.07264">
        <ele>6.4</ele>
        <time>2021-10-22T16:14:25Z</time>
      </trkpt>
      <trkpt lat="49.4397" lon="1.07278">
        <ele>6.4</ele>
        <time>2021-10-22T16:14:26Z</time>
      </trkpt>
      <trkpt lat="49.4397" lon="1.07304">
        <ele>6.4</ele>
        <time>2021-10-22T16:14:28Z</time>
      </trkpt>
      <trkpt lat="49.43969" lon="1.07318">
        <ele>6.4</ele>
        <time>2021-10-22T16:14:29Z</time>
      </trkpt>
      <trkpt lat="49.43969" lon="1.07342">
        <ele>6.4</ele>
        <time>2021-10-22T16:14:31Z</time>
      </trkpt>
      <trkpt lat="49.43968" lon="1.07355">
        <ele>6.4</ele>
        <time>2021-10-22T16:14:32Z</time>
      </trkpt>
      <trkpt lat="49.43968" lon="1.07368">
        <ele>6.4</ele>
        <time>2021-10-22T16:14:33Z</time>
      </trkpt>
      <trkpt lat="49.43967" lon="1.07395">
        <ele>6.4</ele>
        <time>2021-10-22T16:14:35Z</time>
      </trkpt>
      <trkpt lat="49.43967" lon="1.07407">
        <ele>6.4</ele>
        <time>2021-10-22T16:14:36Z</time>
      </trkpt>
      <trkpt lat="49.43965" lon="1.07432">
        <ele>6.4</ele>
        <time>2021-10-22T16:14:38Z</time>
      </trkpt>
      <trkpt lat="49.43963" lon="1.07457">
        <ele>6.5</ele>
        <time>2021-10-22T16:14:41Z</time>
      </trkpt>
      <trkpt lat="49.43961" lon="1.07481">
        <ele>6.5</ele>
        <time>2021-10-22T16:14:42Z</time>
      </trkpt>
      <trkpt lat="49.43959" lon="1.07507">
        <ele>6.5</ele>
        <time>2021-10-22T16:14:44Z</time>
      </trkpt>
      <trkpt lat="49.43958" lon="1.07533">
        <ele>6.5</ele>
        <time>2021-10-22T16:14:46Z</time>
      </trkpt>
      <trkpt lat="49.43957" lon="1.07546">
        <ele>6.5</ele>
        <time>2021-10-22T16:14:48Z</time>
      </trkpt>
      <trkpt lat="49.43955" lon="1.07571">
        <ele>6.6</ele>
        <time>2021-10-22T16:14:49Z</time>
      </trkpt>
      <trkpt lat="49.43953" lon="1.07596">
        <ele>6.7</ele>
        <time>2021-10-22T16:14:51Z</time>
      </trkpt>
      <trkpt lat="49.43952" lon="1.07608">
        <ele>6.7</ele>
        <time>2021-10-22T16:14:52Z</time>
      </trkpt>
      <trkpt lat="49.4395" lon="1.07631">
        <ele>6.6</ele>
        <time>2021-10-22T16:14:54Z</time>
      </trkpt>
      <trkpt lat="49.43948" lon="1.07643">
        <ele>6.6</ele>
        <time>2021-10-22T16:14:55Z</time>
      </trkpt>
      <trkpt lat="49.43947" lon="1.0767">
        <ele>6.7</ele>
        <time>2021-10-22T16:14:57Z</time>
      </trkpt>
      <trkpt lat="49.43944" lon="1.07692">
        <ele>6.8</ele>
        <time>2021-10-22T16:14:59Z</time>
      </trkpt>
      <trkpt lat="49.43943" lon="1.07717">
        <ele>7</ele>
        <time>2021-10-22T16:15:01Z</time>
      </trkpt>
      <trkpt lat="49.43942" lon="1.07729">
        <ele>7.1</ele>
        <time>2021-10-22T16:15:02Z</time>
      </trkpt>
      <trkpt lat="49.43941" lon="1.0774">
        <ele>7.3</ele>
        <time>2021-10-22T16:15:03Z</time>
      </trkpt>
      <trkpt lat="49.43938" lon="1.07761">
        <ele>7.6</ele>
        <time>2021-10-22T16:15:05Z</time>
      </trkpt>
      <trkpt lat="49.43936" lon="1.07771">
        <ele>7.7</ele>
        <time>2021-10-22T16:15:06Z</time>
      </trkpt>
      <trkpt lat="49.43935" lon="1.07781">
        <ele>7.9</ele>
        <time>2021-10-22T16:15:07Z</time>
      </trkpt>
      <trkpt lat="49.43931" lon="1.07801">
        <ele>8.2</ele>
        <time>2021-10-22T16:15:09Z</time>
      </trkpt>
      <trkpt lat="49.4393" lon="1.0781">
        <ele>8.4</ele>
        <time>2021-10-22T16:15:10Z</time>
      </trkpt>
      <trkpt lat="49.43928" lon="1.07819">
        <ele>8.5</ele>
        <time>2021-10-22T16:15:11Z</time>
      </trkpt>
      <trkpt lat="49.43926" lon="1.07829">
        <ele>8.7</ele>
        <time>2021-10-22T16:15:12Z</time>
      </trkpt>
      <trkpt lat="49.43923" lon="1.07848">
        <ele>9.2</ele>
        <time>2021-10-22T16:15:14Z</time>
      </trkpt>
      <trkpt lat="49.43921" lon="1.07857">
        <ele>9.4</ele>
        <time>2021-10-22T16:15:15Z</time>
      </trkpt>
      <trkpt lat="49.43917" lon="1.07873">
        <ele>9.8</ele>
        <time>2021-10-22T16:15:17Z</time>
      </trkpt>
      <trkpt lat="49.43912" lon="1.0789">
        <ele>10.3</ele>
        <time>2021-10-22T16:15:19Z</time>
      </trkpt>
      <trkpt lat="49.4391" lon="1.07899">
        <ele>10.5</ele>
        <time>2021-10-22T16:15:20Z</time>
      </trkpt>
      <trkpt lat="49.43906" lon="1.07914">
        <ele>11</ele>
        <time>2021-10-22T16:15:23Z</time>
      </trkpt>
      <trkpt lat="49.43902" lon="1.07935">
        <ele>11.6</ele>
        <time>2021-10-22T16:15:25Z</time>
      </trkpt>
      <trkpt lat="49.439" lon="1.07947">
        <ele>12</ele>
        <time>2021-10-22T16:15:27Z</time>
      </trkpt>
      <trkpt lat="49.43898" lon="1.07955">
        <ele>12.3</ele>
        <time>2021-10-22T16:15:29Z</time>
      </trkpt>
      <trkpt lat="49.43896" lon="1.07959">
        <ele>12.4</ele>
        <time>2021-10-22T16:15:30Z</time>
      </trkpt>
      <trkpt lat="49.43895" lon="1.07961">
        <ele>12.5</ele>
        <time>2021-10-22T16:15:32Z</time>
      </trkpt>
      <trkpt lat="49.43895" lon="1.0796">
        <ele>12.5</ele>
        <time>2021-10-22T16:15:33Z</time>
      </trkpt>
      <trkpt lat="49.43894" lon="1.07961">
        <ele>12.5</ele>
        <time>2021-10-22T16:15:34Z</time>
      </trkpt>
      <trkpt lat="49.43893" lon="1.07964">
        <ele>12.6</ele>
        <time>2021-10-22T16:15:36Z</time>
      </trkpt>
      <trkpt lat="49.43893" lon="1.07964">
        <ele>12.6</ele>
        <time>2021-10-22T16:15:38Z</time>
      </trkpt>
      <trkpt lat="49.43893" lon="1.07964">
        <ele>12.6</ele>
        <time>2021-10-22T16:15:41Z</time>
      </trkpt>
      <trkpt lat="49.43893" lon="1.07964">
        <ele>12.6</ele>
        <time>2021-10-22T16:15:43Z</time>
      </trkpt>
      <trkpt lat="49.43893" lon="1.07964">
        <ele>12.6</ele>
        <time>2021-10-22T16:15:44Z</time>
      </trkpt>
      <trkpt lat="49.43889" lon="1.07971">
        <ele>12.9</ele>
        <time>2021-10-22T16:15:53Z</time>
      </trkpt>
      <trkpt lat="49.43888" lon="1.07975">
        <ele>13</ele>
        <time>2021-10-22T16:15:56Z</time>
      </trkpt>
      <trkpt lat="49.43886" lon="1.07987">
        <ele>13.4</ele>
        <time>2021-10-22T16:15:58Z</time>
      </trkpt>
      <trkpt lat="49.43885" lon="1.07994">
        <ele>13.7</ele>
        <time>2021-10-22T16:16:00Z</time>
      </trkpt>
      <trkpt lat="49.43884" lon="1.07998">
        <ele>13.8</ele>
        <time>2021-10-22T16:16:01Z</time>
      </trkpt>
      <trkpt lat="49.43888" lon="1.08003">
        <ele>13.9</ele>
        <time>2021-10-22T16:16:03Z</time>
      </trkpt>
      <trkpt lat="49.4389" lon="1.08007">
        <ele>13.8</ele>
        <time>2021-10-22T16:16:04Z</time>
      </trkpt>
      <trkpt lat="49.43907" lon="1.08039">
        <ele>14.2</ele>
        <time>2021-10-22T16:16:05Z</time>
      </trkpt>
      <trkpt lat="49.43911" lon="1.08042">
        <ele>14.2</ele>
        <time>2021-10-22T16:16:06Z</time>
      </trkpt>
      <trkpt lat="49.43929" lon="1.08056">
        <ele>14.5</ele>
        <time>2021-10-22T16:16:09Z</time>
      </trkpt>
      <trkpt lat="49.43935" lon="1.08061">
        <ele>14.6</ele>
        <time>2021-10-22T16:16:10Z</time>
      </trkpt>
      <trkpt lat="49.43946" lon="1.08068">
        <ele>14.8</ele>
        <time>2021-10-22T16:16:12Z</time>
      </trkpt>
      <trkpt lat="49.43951" lon="1.08072">
        <ele>14.9</ele>
        <time>2021-10-22T16:16:13Z</time>
      </trkpt>
      <trkpt lat="49.43962" lon="1.0808">
        <ele>15</ele>
        <time>2021-10-22T16:16:15Z</time>
      </trkpt>
      <trkpt lat="49.43974" lon="1.08088">
        <ele>15.1</ele>
        <time>2021-10-22T16:16:17Z</time>
      </trkpt>
      <trkpt lat="49.43984" lon="1.08095">
        <ele>15.2</ele>
        <time>2021-10-22T16:16:19Z</time>
      </trkpt>
      <trkpt lat="49.43997" lon="1.08103">
        <ele>15.2</ele>
        <time>2021-10-22T16:16:22Z</time>
      </trkpt>
      <trkpt lat="49.44008" lon="1.0811">
        <ele>15.2</ele>
        <time>2021-10-22T16:16:23Z</time>
      </trkpt>
      <trkpt lat="49.44013" lon="1.08114">
        <ele>15.2</ele>
        <time>2021-10-22T16:16:24Z</time>
      </trkpt>
      <trkpt lat="49.44019" lon="1.08119">
        <ele>15.2</ele>
        <time>2021-10-22T16:16:25Z</time>
      </trkpt>
      <trkpt lat="49.44031" lon="1.08126">
        <ele>15.1</ele>
        <time>2021-10-22T16:16:28Z</time>
      </trkpt>
      <trkpt lat="49.44037" lon="1.0813">
        <ele>15</ele>
        <time>2021-10-22T16:16:29Z</time>
      </trkpt>
      <trkpt lat="49.4405" lon="1.0814">
        <ele>14.8</ele>
        <time>2021-10-22T16:16:30Z</time>
      </trkpt>
      <trkpt lat="49.44056" lon="1.08145">
        <ele>14.7</ele>
        <time>2021-10-22T16:16:32Z</time>
      </trkpt>
      <trkpt lat="49.44069" lon="1.08154">
        <ele>14.5</ele>
        <time>2021-10-22T16:16:33Z</time>
      </trkpt>
      <trkpt lat="49.44081" lon="1.08163">
        <ele>14.2</ele>
        <time>2021-10-22T16:16:35Z</time>
      </trkpt>
      <trkpt lat="49.44088" lon="1.08169">
        <ele>14</ele>
        <time>2021-10-22T16:16:36Z</time>
      </trkpt>
      <trkpt lat="49.44102" lon="1.08179">
        <ele>13.6</ele>
        <time>2021-10-22T16:16:38Z</time>
      </trkpt>
      <trkpt lat="49.44115" lon="1.08189">
        <ele>13.3</ele>
        <time>2021-10-22T16:16:40Z</time>
      </trkpt>
      <trkpt lat="49.44129" lon="1.08199">
        <ele>12.9</ele>
        <time>2021-10-22T16:16:43Z</time>
      </trkpt>
      <trkpt lat="49.44142" lon="1.08209">
        <ele>12.6</ele>
        <time>2021-10-22T16:16:44Z</time>
      </trkpt>
      <trkpt lat="49.44154" lon="1.08219">
        <ele>12.2</ele>
        <time>2021-10-22T16:16:46Z</time>
      </trkpt>
      <trkpt lat="49.44167" lon="1.08228">
        <ele>11.7</ele>
        <time>2021-10-22T16:16:49Z</time>
      </trkpt>
      <trkpt lat="49.4418" lon="1.08237">
        <ele>11.2</ele>
        <time>2021-10-22T16:16:50Z</time>
      </trkpt>
      <trkpt lat="49.44184" lon="1.08244">
        <ele>11</ele>
        <time>2021-10-22T16:16:51Z</time>
      </trkpt>
      <trkpt lat="49.44186" lon="1.08263">
        <ele>10.5</ele>
        <time>2021-10-22T16:16:53Z</time>
      </trkpt>
      <trkpt lat="49.44182" lon="1.08272">
        <ele>10.2</ele>
        <time>2021-10-22T16:16:54Z</time>
      </trkpt>
      <trkpt lat="49.44178" lon="1.0828">
        <ele>10.1</ele>
        <time>2021-10-22T16:16:55Z</time>
      </trkpt>
      <trkpt lat="49.44173" lon="1.0829">
        <ele>9.9</ele>
        <time>2021-10-22T16:16:57Z</time>
      </trkpt>
      <trkpt lat="49.44172" lon="1.08293">
        <ele>9.9</ele>
        <time>2021-10-22T16:16:58Z</time>
      </trkpt>
      <trkpt lat="49.44172" lon="1.08291">
        <ele>9.9</ele>
        <time>2021-10-22T16:16:59Z</time>
      </trkpt>
      <trkpt lat="49.44172" lon="1.08291">
        <ele>9.9</ele>
        <time>2021-10-22T16:17:00Z</time>
      </trkpt>
      <trkpt lat="49.44172" lon="1.0829">
        <ele>9.9</ele>
        <time>2021-10-22T16:17:02Z</time>
      </trkpt>
      <trkpt lat="49.44172" lon="1.0829">
        <ele>9.9</ele>
        <time>2021-10-22T16:17:05Z</time>
      </trkpt>
      <trkpt lat="49.44172" lon="1.0829">
        <ele>9.9</ele>
        <time>2021-10-22T16:17:06Z</time>
      </trkpt>
      <trkpt lat="49.44172" lon="1.0829">
        <ele>9.9</ele>
        <time>2021-10-22T16:17:07Z</time>
      </trkpt>
      <trkpt lat="49.44172" lon="1.08299">
        <ele>10</ele>
        <time>2021-10-22T16:17:16Z</time>
      </trkpt>
      <trkpt lat="49.44173" lon="1.08304">
        <ele>10</ele>
        <time>2021-10-22T16:17:17Z</time>
      </trkpt>
      <trkpt lat="49.44176" lon="1.08308">
        <ele>10.1</ele>
        <time>2021-10-22T16:17:18Z</time>
      </trkpt>
      <trkpt lat="49.44179" lon="1.08314">
        <ele>10.2</ele>
        <time>2021-10-22T16:17:20Z</time>
      </trkpt>
      <trkpt lat="49.44183" lon="1.0832">
        <ele>10.2</ele>
        <time>2021-10-22T16:17:21Z</time>
      </trkpt>
      <trkpt lat="49.44188" lon="1.08327">
        <ele>10.3</ele>
        <time>2021-10-22T16:17:23Z</time>
      </trkpt>
      <trkpt lat="49.44191" lon="1.0833">
        <ele>10.3</ele>
        <time>2021-10-22T16:17:24Z</time>
      </trkpt>
      <trkpt lat="49.44193" lon="1.08334">
        <ele>10.3</ele>
        <time>2021-10-22T16:17:25Z</time>
      </trkpt>
      <trkpt lat="49.44196" lon="1.08341">
        <ele>10.4</ele>
        <time>2021-10-22T16:17:26Z</time>
      </trkpt>
      <trkpt lat="49.44201" lon="1.0835">
        <ele>10.4</ele>
        <time>2021-10-22T16:17:27Z</time>
      </trkpt>
      <trkpt lat="49.44205" lon="1.08355">
        <ele>10.5</ele>
        <time>2021-10-22T16:17:30Z</time>
      </trkpt>
      <trkpt lat="49.44206" lon="1.08362">
        <ele>10.5</ele>
        <time>2021-10-22T16:17:32Z</time>
      </trkpt>
      <trkpt lat="49.44206" lon="1.08363">
        <ele>10.6</ele>
        <time>2021-10-22T16:17:33Z</time>
      </trkpt>
      <trkpt lat="49.44205" lon="1.08361">
        <ele>10.6</ele>
        <time>2021-10-22T16:17:35Z</time>
      </trkpt>
      <trkpt lat="49.44205" lon="1.08358">
        <ele>10.6</ele>
        <time>2021-10-22T16:17:37Z</time>
      </trkpt>
      <trkpt lat="49.44206" lon="1.08357">
        <ele>10.6</ele>
        <time>2021-10-22T16:17:39Z</time>
      </trkpt>
      <trkpt lat="49.44206" lon="1.08357">
        <ele>10.6</ele>
        <time>2021-10-22T16:17:40Z</time>
      </trkpt>
      <trkpt lat="49.44206" lon="1.08357">
        <ele>10.6</ele>
        <time>2021-10-22T16:17:41Z</time>
      </trkpt>
      <trkpt lat="49.44206" lon="1.08359">
        <ele>10.6</ele>
        <time>2021-10-22T16:17:43Z</time>
      </trkpt>
      <trkpt lat="49.44204" lon="1.08367">
        <ele>10.7</ele>
        <time>2021-10-22T16:17:46Z</time>
      </trkpt>
      <trkpt lat="49.44205" lon="1.08373">
        <ele>10.8</ele>
        <time>2021-10-22T16:17:47Z</time>
      </trkpt>
      <trkpt lat="49.44206" lon="1.08375">
        <ele>10.8</ele>
        <time>2021-10-22T16:17:48Z</time>
      </trkpt>
      <trkpt lat="49.44214" lon="1.08389">
        <ele>10.9</ele>
        <time>2021-10-22T16:17:49Z</time>
      </trkpt>
      <trkpt lat="49.44221" lon="1.084">
        <ele>11</ele>
        <time>2021-10-22T16:17:51Z</time>
      </trkpt>
      <trkpt lat="49.44227" lon="1.08402">
        <ele>11.1</ele>
        <time>2021-10-22T16:17:53Z</time>
      </trkpt>
      <trkpt lat="49.44231" lon="1.08416">
        <ele>11.3</ele>
        <time>2021-10-22T16:17:54Z</time>
      </trkpt>
      <trkpt lat="49.44237" lon="1.08422">
        <ele>11.4</ele>
        <time>2021-10-22T16:17:56Z</time>
      </trkpt>
      <trkpt lat="49.44242" lon="1.08432">
        <ele>11.6</ele>
        <time>2021-10-22T16:17:57Z</time>
      </trkpt>
      <trkpt lat="49.44252" lon="1.08446">
        <ele>11.9</ele>
        <time>2021-10-22T16:17:59Z</time>
      </trkpt>
      <trkpt lat="49.44257" lon="1.08454">
        <ele>12</ele>
        <time>2021-10-22T16:18:00Z</time>
      </trkpt>
      <trkpt lat="49.44263" lon="1.08461">
        <ele>12.2</ele>
        <time>2021-10-22T16:18:01Z</time>
      </trkpt>
      <trkpt lat="49.44269" lon="1.08468">
        <ele>12.3</ele>
        <time>2021-10-22T16:18:02Z</time>
      </trkpt>
      <trkpt lat="49.44281" lon="1.08476">
        <ele>12.6</ele>
        <time>2021-10-22T16:18:04Z</time>
      </trkpt>
      <trkpt lat="49.44291" lon="1.08484">
        <ele>12.9</ele>
        <time>2021-10-22T16:18:06Z</time>
      </trkpt>
      <trkpt lat="49.44297" lon="1.08487">
        <ele>13</ele>
        <time>2021-10-22T16:18:07Z</time>
      </trkpt>
      <trkpt lat="49.44302" lon="1.08491">
        <ele>13.1</ele>
        <time>2021-10-22T16:18:08Z</time>
      </trkpt>
      <trkpt lat="49.44314" lon="1.08497">
        <ele>13.5</ele>
        <time>2021-10-22T16:18:10Z</time>
      </trkpt>
      <trkpt lat="49.44319" lon="1.08499">
        <ele>13.7</ele>
        <time>2021-10-22T16:18:11Z</time>
      </trkpt>
      <trkpt lat="49.44328" lon="1.085">
        <ele>13.9</ele>
        <time>2021-10-22T16:18:14Z</time>
      </trkpt>
      <trkpt lat="49.44337" lon="1.08494">
        <ele>14.2</ele>
        <time>2021-10-22T16:18:15Z</time>
      </trkpt>
      <trkpt lat="49.4434" lon="1.08491">
        <ele>14.3</ele>
        <time>2021-10-22T16:18:18Z</time>
      </trkpt>
      <trkpt lat="49.44343" lon="1.08492">
        <ele>14.4</ele>
        <time>2021-10-22T16:18:19Z</time>
      </trkpt>
      <trkpt lat="49.4435" lon="1.08496">
        <ele>14.6</ele>
        <time>2021-10-22T16:18:21Z</time>
      </trkpt>
      <trkpt lat="49.44359" lon="1.08501">
        <ele>14.8</ele>
        <time>2021-10-22T16:18:23Z</time>
      </trkpt>
      <trkpt lat="49.44376" lon="1.08508">
        <ele>15.4</ele>
        <time>2021-10-22T16:18:24Z</time>
      </trkpt>
      <trkpt lat="49.44388" lon="1.08513">
        <ele>15.9</ele>
        <time>2021-10-22T16:18:26Z</time>
      </trkpt>
      <trkpt lat="49.44394" lon="1.08519">
        <ele>16.2</ele>
        <time>2021-10-22T16:18:28Z</time>
      </trkpt>
      <trkpt lat="49.44404" lon="1.08529">
        <ele>16.7</ele>
        <time>2021-10-22T16:18:30Z</time>
      </trkpt>
      <trkpt lat="49.44407" lon="1.0853">
        <ele>16.8</ele>
        <time>2021-10-22T16:18:31Z</time>
      </trkpt>
      <trkpt lat="49.44415" lon="1.08532">
        <ele>17.1</ele>
        <time>2021-10-22T16:18:32Z</time>
      </trkpt>
      <trkpt lat="49.44423" lon="1.08534">
        <ele>17.4</ele>
        <time>2021-10-22T16:18:34Z</time>
      </trkpt>
      <trkpt lat="49.44431" lon="1.08536">
        <ele>17.6</ele>
        <time>2021-10-22T16:18:35Z</time>
      </trkpt>
      <trkpt lat="49.44439" lon="1.0854">
        <ele>17.9</ele>
        <time>2021-10-22T16:18:36Z</time>
      </trkpt>
      <trkpt lat="49.44446" lon="1.08546">
        <ele>18.2</ele>
        <time>2021-10-22T16:18:37Z</time>
      </trkpt>
      <trkpt lat="49.44456" lon="1.08551">
        <ele>18.6</ele>
        <time>2021-10-22T16:18:39Z</time>
      </trkpt>
      <trkpt lat="49.44464" lon="1.08555">
        <ele>18.8</ele>
        <time>2021-10-22T16:18:42Z</time>
      </trkpt>
      <trkpt lat="49.44475" lon="1.08558">
        <ele>19.2</ele>
        <time>2021-10-22T16:18:43Z</time>
      </trkpt>
      <trkpt lat="49.44483" lon="1.08565">
        <ele>19.8</ele>
        <time>2021-10-22T16:18:44Z</time>
      </trkpt>
      <trkpt lat="49.44491" lon="1.0857">
        <ele>20.3</ele>
        <time>2021-10-22T16:18:46Z</time>
      </trkpt>
      <trkpt lat="49.44498" lon="1.08578">
        <ele>20.7</ele>
        <time>2021-10-22T16:18:48Z</time>
      </trkpt>
      <trkpt lat="49.44507" lon="1.08581">
        <ele>21.3</ele>
        <time>2021-10-22T16:18:50Z</time>
      </trkpt>
      <trkpt lat="49.44518" lon="1.08588">
        <ele>21.9</ele>
        <time>2021-10-22T16:18:52Z</time>
      </trkpt>
      <trkpt lat="49.44528" lon="1.08595">
        <ele>22.3</ele>
        <time>2021-10-22T16:18:54Z</time>
      </trkpt>
      <trkpt lat="49.44535" lon="1.086">
        <ele>22.6</ele>
        <time>2021-10-22T16:18:55Z</time>
      </trkpt>
      <trkpt lat="49.44539" lon="1.08605">
        <ele>22.8</ele>
        <time>2021-10-22T16:18:56Z</time>
      </trkpt>
      <trkpt lat="49.44541" lon="1.0861">
        <ele>23</ele>
        <time>2021-10-22T16:18:57Z</time>
      </trkpt>
      <trkpt lat="49.44545" lon="1.08622">
        <ele>23.4</ele>
        <time>2021-10-22T16:18:59Z</time>
      </trkpt>
      <trkpt lat="49.44545" lon="1.08628">
        <ele>23.5</ele>
        <time>2021-10-22T16:19:00Z</time>
      </trkpt>
      <trkpt lat="49.44543" lon="1.08634">
        <ele>23.6</ele>
        <time>2021-10-22T16:19:01Z</time>
      </trkpt>
      <trkpt lat="49.44545" lon="1.08643">
        <ele>23.7</ele>
        <time>2021-10-22T16:19:02Z</time>
      </trkpt>
      <trkpt lat="49.44547" lon="1.08651">
        <ele>23.8</ele>
        <time>2021-10-22T16:19:03Z</time>
      </trkpt>
      <trkpt lat="49.44548" lon="1.08659">
        <ele>24.5</ele>
        <time>2021-10-22T16:19:04Z</time>
      </trkpt>
      <trkpt lat="49.44554" lon="1.0869">
        <ele>25.5</ele>
        <time>2021-10-22T16:19:05Z</time>
      </trkpt>
      <trkpt lat="49.44555" lon="1.08703">
        <ele>25.5</ele>
        <time>2021-10-22T16:19:07Z</time>
      </trkpt>
      <trkpt lat="49.44555" lon="1.08714">
        <ele>25.4</ele>
        <time>2021-10-22T16:19:08Z</time>
      </trkpt>
      <trkpt lat="49.44554" lon="1.08719">
        <ele>25.4</ele>
        <time>2021-10-22T16:19:09Z</time>
      </trkpt>
      <trkpt lat="49.44551" lon="1.08723">
        <ele>25.4</ele>
        <time>2021-10-22T16:19:10Z</time>
      </trkpt>
      <trkpt lat="49.44544" lon="1.08745">
        <ele>25.3</ele>
        <time>2021-10-22T16:19:12Z</time>
      </trkpt>
      <trkpt lat="49.44543" lon="1.08756">
        <ele>25.3</ele>
        <time>2021-10-22T16:19:13Z</time>
      </trkpt>
      <trkpt lat="49.44542" lon="1.08767">
        <ele>25.3</ele>
        <time>2021-10-22T16:19:15Z</time>
      </trkpt>
      <trkpt lat="49.44538" lon="1.08789">
        <ele>25.2</ele>
        <time>2021-10-22T16:19:16Z</time>
      </trkpt>
      <trkpt lat="49.44535" lon="1.08797">
        <ele>25.3</ele>
        <time>2021-10-22T16:19:17Z</time>
      </trkpt>
      <trkpt lat="49.44528" lon="1.0881">
        <ele>25.3</ele>
        <time>2021-10-22T16:19:20Z</time>
      </trkpt>
      <trkpt lat="49.44526" lon="1.08832">
        <ele>25.2</ele>
        <time>2021-10-22T16:19:21Z</time>
      </trkpt>
      <trkpt lat="49.44525" lon="1.0885">
        <ele>25.1</ele>
        <time>2021-10-22T16:19:23Z</time>
      </trkpt>
      <trkpt lat="49.44524" lon="1.0886">
        <ele>25.1</ele>
        <time>2021-10-22T16:19:25Z</time>
      </trkpt>
      <trkpt lat="49.44522" lon="1.08879">
        <ele>25</ele>
        <time>2021-10-22T16:19:26Z</time>
      </trkpt>
      <trkpt lat="49.44521" lon="1.0889">
        <ele>25</ele>
        <time>2021-10-22T16:19:27Z</time>
      </trkpt>
      <trkpt lat="49.44519" lon="1.08901">
        <ele>24.9</ele>
        <time>2021-10-22T16:19:29Z</time>
      </trkpt>
      <trkpt lat="49.44515" lon="1.08919">
        <ele>24.8</ele>
        <time>2021-10-22T16:19:30Z</time>
      </trkpt>
      <trkpt lat="49.44515" lon="1.08931">
        <ele>24.8</ele>
        <time>2021-10-22T16:19:31Z</time>
      </trkpt>
      <trkpt lat="49.44516" lon="1.08952">
        <ele>24.8</ele>
        <time>2021-10-22T16:19:33Z</time>
      </trkpt>
      <trkpt lat="49.44514" lon="1.08962">
        <ele>24.7</ele>
        <time>2021-10-22T16:19:34Z</time>
      </trkpt>
      <trkpt lat="49.44516" lon="1.08973">
        <ele>24.7</ele>
        <time>2021-10-22T16:19:35Z</time>
      </trkpt>
      <trkpt lat="49.44511" lon="1.08981">
        <ele>24.7</ele>
        <time>2021-10-22T16:19:37Z</time>
      </trkpt>
      <trkpt lat="49.44509" lon="1.08986">
        <ele>24.7</ele>
        <time>2021-10-22T16:19:38Z</time>
      </trkpt>
      <trkpt lat="49.44509" lon="1.08996">
        <ele>24.6</ele>
        <time>2021-10-22T16:19:39Z</time>
      </trkpt>
      <trkpt lat="49.4451" lon="1.09003">
        <ele>24.6</ele>
        <time>2021-10-22T16:19:40Z</time>
      </trkpt>
      <trkpt lat="49.44506" lon="1.09023">
        <ele>24.5</ele>
        <time>2021-10-22T16:19:42Z</time>
      </trkpt>
      <trkpt lat="49.44498" lon="1.09062">
        <ele>24.3</ele>
        <time>2021-10-22T16:19:45Z</time>
      </trkpt>
      <trkpt lat="49.44496" lon="1.09083">
        <ele>24.3</ele>
        <time>2021-10-22T16:19:47Z</time>
      </trkpt>
      <trkpt lat="49.44493" lon="1.0909">
        <ele>24.2</ele>
        <time>2021-10-22T16:19:48Z</time>
      </trkpt>
      <trkpt lat="49.44492" lon="1.09099">
        <ele>24.2</ele>
        <time>2021-10-22T16:19:50Z</time>
      </trkpt>
      <trkpt lat="49.44486" lon="1.09119">
        <ele>24.2</ele>
        <time>2021-10-22T16:19:51Z</time>
      </trkpt>
      <trkpt lat="49.4448" lon="1.09128">
        <ele>24.2</ele>
        <time>2021-10-22T16:19:53Z</time>
      </trkpt>
      <trkpt lat="49.44481" lon="1.09136">
        <ele>24.1</ele>
        <time>2021-10-22T16:19:56Z</time>
      </trkpt>
      <trkpt lat="49.4448" lon="1.09145">
        <ele>24.1</ele>
        <time>2021-10-22T16:19:57Z</time>
      </trkpt>
      <trkpt lat="49.4448" lon="1.09153">
        <ele>24.1</ele>
        <time>2021-10-22T16:19:58Z</time>
      </trkpt>
      <trkpt lat="49.44479" lon="1.09161">
        <ele>24.1</ele>
        <time>2021-10-22T16:19:59Z</time>
      </trkpt>
      <trkpt lat="49.44475" lon="1.09172">
        <ele>24.1</ele>
        <time>2021-10-22T16:20:01Z</time>
      </trkpt>
      <trkpt lat="49.44473" lon="1.09178">
        <ele>24.1</ele>
        <time>2021-10-22T16:20:02Z</time>
      </trkpt>
      <trkpt lat="49.44469" lon="1.09188">
        <ele>24.1</ele>
        <time>2021-10-22T16:20:03Z</time>
      </trkpt>
      <trkpt lat="49.44465" lon="1.09193">
        <ele>24.1</ele>
        <time>2021-10-22T16:20:05Z</time>
      </trkpt>
      <trkpt lat="49.44464" lon="1.09195">
        <ele>24.1</ele>
        <time>2021-10-22T16:20:07Z</time>
      </trkpt>
      <trkpt lat="49.44462" lon="1.09196">
        <ele>24.1</ele>
        <time>2021-10-22T16:20:08Z</time>
      </trkpt>
      <trkpt lat="49.44459" lon="1.092">
        <ele>24</ele>
        <time>2021-10-22T16:20:09Z</time>
      </trkpt>
      <trkpt lat="49.44458" lon="1.09206">
        <ele>24</ele>
        <time>2021-10-22T16:20:11Z</time>
      </trkpt>
      <trkpt lat="49.44459" lon="1.09212">
        <ele>24</ele>
        <time>2021-10-22T16:20:12Z</time>
      </trkpt>
      <trkpt lat="49.4446" lon="1.09215">
        <ele>24</ele>
        <time>2021-10-22T16:20:13Z</time>
      </trkpt>
      <trkpt lat="49.44464" lon="1.09224">
        <ele>24.1</ele>
        <time>2021-10-22T16:20:15Z</time>
      </trkpt>
      <trkpt lat="49.44465" lon="1.09229">
        <ele>24.1</ele>
        <time>2021-10-22T16:20:16Z</time>
      </trkpt>
      <trkpt lat="49.44464" lon="1.09235">
        <ele>24.2</ele>
        <time>2021-10-22T16:20:18Z</time>
      </trkpt>
      <trkpt lat="49.44462" lon="1.09241">
        <ele>24.2</ele>
        <time>2021-10-22T16:20:19Z</time>
      </trkpt>
      <trkpt lat="49.44459" lon="1.09243">
        <ele>24.2</ele>
        <time>2021-10-22T16:20:20Z</time>
      </trkpt>
      <trkpt lat="49.44457" lon="1.09246">
        <ele>24.2</ele>
        <time>2021-10-22T16:20:21Z</time>
      </trkpt>
      <trkpt lat="49.44459" lon="1.09255">
        <ele>24.1</ele>
        <time>2021-10-22T16:20:22Z</time>
      </trkpt>
      <trkpt lat="49.44459" lon="1.09263">
        <ele>24.1</ele>
        <time>2021-10-22T16:20:23Z</time>
      </trkpt>
      <trkpt lat="49.4446" lon="1.09272">
        <ele>24</ele>
        <time>2021-10-22T16:20:25Z</time>
      </trkpt>
      <trkpt lat="49.44461" lon="1.0928">
        <ele>24</ele>
        <time>2021-10-22T16:20:27Z</time>
      </trkpt>
      <trkpt lat="49.44471" lon="1.0932">
        <ele>25.2</ele>
        <time>2021-10-22T16:20:29Z</time>
      </trkpt>
      <trkpt lat="49.44475" lon="1.09326">
        <ele>25.5</ele>
        <time>2021-10-22T16:20:30Z</time>
      </trkpt>
      <trkpt lat="49.44474" lon="1.09332">
        <ele>25.8</ele>
        <time>2021-10-22T16:20:31Z</time>
      </trkpt>
    </trkseg>
  </trk>
</gpx>